<?xml version="1.0" encoding="UTF-8" standalone="no" ?>
<gpx xmlns="http://www.topografix.com/GPX/1/1" xmlns:xsi="http://www.w3.org/2001/XMLSchema-instance" xsi:schemaLocation="http://www.topografix.com/GPX/1/1 http://www.topografix.com/GPX/1/1/gpx.xsd" version="1.1" creator="VisuGPX - https://www.visugpx.com">
  <metadata>
    <name>BOUCLE Plateau Siou blanc par sollies toucas</name>
    <desc><![CDATA[Découvrez ce parcours de VTT de 49,8 km à proximité de Solliès-Toucas. Ce parcours emprunte uniquement des routes. Il présente une ascension cumulée de plus de 770m.]]></desc>
  </metadata>
  <trk>
    <name><![CDATA[BOUCLE Plateau Siou blanc par sollies toucas-19001315]]></name>
    <trkseg>
      <trkpt lat="43.19853" lon="6.00397">
        <ele>143</ele>
        <time>2024-11-10T12:10:50Z</time>
      </trkpt>
      <trkpt lat="43.1987" lon="6.00406">
        <ele>144</ele>
        <time>2024-11-10T12:10:54Z</time>
      </trkpt>
      <trkpt lat="43.19893" lon="6.00411">
        <ele>146</ele>
        <time>2024-11-10T12:11:00Z</time>
      </trkpt>
      <trkpt lat="43.19973" lon="6.00428">
        <ele>151</ele>
        <time>2024-11-10T12:11:19Z</time>
      </trkpt>
      <trkpt lat="43.19989" lon="6.00422">
        <ele>152</ele>
        <time>2024-11-10T12:11:22Z</time>
      </trkpt>
      <trkpt lat="43.19998" lon="6.00409">
        <ele>153</ele>
        <time>2024-11-10T12:11:26Z</time>
      </trkpt>
      <trkpt lat="43.20004" lon="6.00393">
        <ele>155</ele>
        <time>2024-11-10T12:11:29Z</time>
      </trkpt>
      <trkpt lat="43.20013" lon="6.00311">
        <ele>158</ele>
        <time>2024-11-10T12:11:43Z</time>
      </trkpt>
      <trkpt lat="43.20028" lon="6.00216">
        <ele>158</ele>
        <time>2024-11-10T12:11:59Z</time>
      </trkpt>
      <trkpt lat="43.20039" lon="6.00242">
        <ele>161</ele>
        <time>2024-11-10T12:12:04Z</time>
      </trkpt>
      <trkpt lat="43.20054" lon="6.0027">
        <ele>163</ele>
        <time>2024-11-10T12:12:10Z</time>
      </trkpt>
      <trkpt lat="43.20074" lon="6.00322">
        <ele>167</ele>
        <time>2024-11-10T12:12:20Z</time>
      </trkpt>
      <trkpt lat="43.20075" lon="6.00324">
        <ele>167</ele>
        <time>2024-11-10T12:12:21Z</time>
      </trkpt>
      <trkpt lat="43.20079" lon="6.00325">
        <ele>167</ele>
        <time>2024-11-10T12:12:22Z</time>
      </trkpt>
      <trkpt lat="43.20084" lon="6.00319">
        <ele>168</ele>
        <time>2024-11-10T12:12:23Z</time>
      </trkpt>
      <trkpt lat="43.20092" lon="6.00285">
        <ele>170</ele>
        <time>2024-11-10T12:12:29Z</time>
      </trkpt>
      <trkpt lat="43.20094" lon="6.00283">
        <ele>171</ele>
        <time>2024-11-10T12:12:30Z</time>
      </trkpt>
      <trkpt lat="43.20099" lon="6.00285">
        <ele>172</ele>
        <time>2024-11-10T12:12:31Z</time>
      </trkpt>
      <trkpt lat="43.2011" lon="6.00321">
        <ele>175</ele>
        <time>2024-11-10T12:12:38Z</time>
      </trkpt>
      <trkpt lat="43.20154" lon="6.004">
        <ele>185</ele>
        <time>2024-11-10T12:12:55Z</time>
      </trkpt>
      <trkpt lat="43.20168" lon="6.00428">
        <ele>188</ele>
        <time>2024-11-10T12:13:00Z</time>
      </trkpt>
      <trkpt lat="43.20171" lon="6.00459">
        <ele>187</ele>
        <time>2024-11-10T12:13:06Z</time>
      </trkpt>
      <trkpt lat="43.20174" lon="6.00471">
        <ele>187</ele>
        <time>2024-11-10T12:13:08Z</time>
      </trkpt>
      <trkpt lat="43.20178" lon="6.00477">
        <ele>188</ele>
        <time>2024-11-10T12:13:09Z</time>
      </trkpt>
      <trkpt lat="43.20202" lon="6.00488">
        <ele>190</ele>
        <time>2024-11-10T12:13:15Z</time>
      </trkpt>
      <trkpt lat="43.20206" lon="6.00495">
        <ele>190</ele>
        <time>2024-11-10T12:13:17Z</time>
      </trkpt>
      <trkpt lat="43.20221" lon="6.00475">
        <ele>192</ele>
        <time>2024-11-10T12:13:22Z</time>
      </trkpt>
      <trkpt lat="43.20235" lon="6.00462">
        <ele>193</ele>
        <time>2024-11-10T12:13:26Z</time>
      </trkpt>
      <trkpt lat="43.20255" lon="6.00435">
        <ele>195</ele>
        <time>2024-11-10T12:13:32Z</time>
      </trkpt>
      <trkpt lat="43.20264" lon="6.00431">
        <ele>194</ele>
        <time>2024-11-10T12:13:34Z</time>
      </trkpt>
      <trkpt lat="43.20265" lon="6.00424">
        <ele>194</ele>
        <time>2024-11-10T12:13:36Z</time>
      </trkpt>
      <trkpt lat="43.20269" lon="6.00414">
        <ele>194</ele>
        <time>2024-11-10T12:13:37Z</time>
      </trkpt>
      <trkpt lat="43.20286" lon="6.00381">
        <ele>197</ele>
        <time>2024-11-10T12:13:44Z</time>
      </trkpt>
      <trkpt lat="43.20292" lon="6.00356">
        <ele>198</ele>
        <time>2024-11-10T12:13:49Z</time>
      </trkpt>
      <trkpt lat="43.20317" lon="6.00284">
        <ele>203</ele>
        <time>2024-11-10T12:14:02Z</time>
      </trkpt>
      <trkpt lat="43.20332" lon="6.00225">
        <ele>206</ele>
        <time>2024-11-10T12:14:13Z</time>
      </trkpt>
      <trkpt lat="43.2034" lon="6.00182">
        <ele>207</ele>
        <time>2024-11-10T12:14:21Z</time>
      </trkpt>
      <trkpt lat="43.20338" lon="6.00165">
        <ele>208</ele>
        <time>2024-11-10T12:14:24Z</time>
      </trkpt>
      <trkpt lat="43.20327" lon="6.00138">
        <ele>209</ele>
        <time>2024-11-10T12:14:29Z</time>
      </trkpt>
      <trkpt lat="43.20315" lon="6.00102">
        <ele>210</ele>
        <time>2024-11-10T12:14:36Z</time>
      </trkpt>
      <trkpt lat="43.20311" lon="6.00081">
        <ele>210</ele>
        <time>2024-11-10T12:14:39Z</time>
      </trkpt>
      <trkpt lat="43.20312" lon="6.00057">
        <ele>211</ele>
        <time>2024-11-10T12:14:43Z</time>
      </trkpt>
      <trkpt lat="43.20326" lon="6.00007">
        <ele>214</ele>
        <time>2024-11-10T12:14:52Z</time>
      </trkpt>
      <trkpt lat="43.20353" lon="5.9994">
        <ele>215</ele>
        <time>2024-11-10T12:15:05Z</time>
      </trkpt>
      <trkpt lat="43.20358" lon="5.99902">
        <ele>216</ele>
        <time>2024-11-10T12:15:12Z</time>
      </trkpt>
      <trkpt lat="43.20373" lon="5.99835">
        <ele>219</ele>
        <time>2024-11-10T12:15:24Z</time>
      </trkpt>
      <trkpt lat="43.20377" lon="5.99835">
        <ele>219</ele>
        <time>2024-11-10T12:15:25Z</time>
      </trkpt>
      <trkpt lat="43.20383" lon="5.99831">
        <ele>220</ele>
        <time>2024-11-10T12:15:26Z</time>
      </trkpt>
      <trkpt lat="43.20396" lon="5.99812">
        <ele>221</ele>
        <time>2024-11-10T12:15:31Z</time>
      </trkpt>
      <trkpt lat="43.20402" lon="5.99784">
        <ele>222</ele>
        <time>2024-11-10T12:15:36Z</time>
      </trkpt>
      <trkpt lat="43.20413" lon="5.99743">
        <ele>224</ele>
        <time>2024-11-10T12:15:43Z</time>
      </trkpt>
      <trkpt lat="43.20445" lon="5.99689">
        <ele>226</ele>
        <time>2024-11-10T12:15:55Z</time>
      </trkpt>
      <trkpt lat="43.20507" lon="5.99631">
        <ele>234</ele>
        <time>2024-11-10T12:16:13Z</time>
      </trkpt>
      <trkpt lat="43.20606" lon="5.99511">
        <ele>243</ele>
        <time>2024-11-10T12:16:44Z</time>
      </trkpt>
      <trkpt lat="43.20665" lon="5.99441">
        <ele>248</ele>
        <time>2024-11-10T12:17:02Z</time>
      </trkpt>
      <trkpt lat="43.20684" lon="5.99423">
        <ele>250</ele>
        <time>2024-11-10T12:17:07Z</time>
      </trkpt>
      <trkpt lat="43.20755" lon="5.99377">
        <ele>260</ele>
        <time>2024-11-10T12:17:25Z</time>
      </trkpt>
      <trkpt lat="43.20763" lon="5.99365">
        <ele>262</ele>
        <time>2024-11-10T12:17:28Z</time>
      </trkpt>
      <trkpt lat="43.20762" lon="5.9935">
        <ele>261</ele>
        <time>2024-11-10T12:17:31Z</time>
      </trkpt>
      <trkpt lat="43.20753" lon="5.99331">
        <ele>259</ele>
        <time>2024-11-10T12:17:35Z</time>
      </trkpt>
      <trkpt lat="43.20752" lon="5.99315">
        <ele>259</ele>
        <time>2024-11-10T12:17:37Z</time>
      </trkpt>
      <trkpt lat="43.2076" lon="5.99288">
        <ele>261</ele>
        <time>2024-11-10T12:17:42Z</time>
      </trkpt>
      <trkpt lat="43.20782" lon="5.99226">
        <ele>268</ele>
        <time>2024-11-10T12:17:54Z</time>
      </trkpt>
      <trkpt lat="43.20792" lon="5.9918">
        <ele>271</ele>
        <time>2024-11-10T12:18:02Z</time>
      </trkpt>
      <trkpt lat="43.20798" lon="5.99052">
        <ele>281</ele>
        <time>2024-11-10T12:18:24Z</time>
      </trkpt>
      <trkpt lat="43.20797" lon="5.99029">
        <ele>284</ele>
        <time>2024-11-10T12:18:28Z</time>
      </trkpt>
      <trkpt lat="43.20794" lon="5.99008">
        <ele>286</ele>
        <time>2024-11-10T12:18:32Z</time>
      </trkpt>
      <trkpt lat="43.20784" lon="5.9899">
        <ele>287</ele>
        <time>2024-11-10T12:18:36Z</time>
      </trkpt>
      <trkpt lat="43.2077" lon="5.98978">
        <ele>288</ele>
        <time>2024-11-10T12:18:39Z</time>
      </trkpt>
      <trkpt lat="43.20615" lon="5.98916">
        <ele>292</ele>
        <time>2024-11-10T12:19:17Z</time>
      </trkpt>
      <trkpt lat="43.20478" lon="5.98866">
        <ele>310</ele>
        <time>2024-11-10T12:19:50Z</time>
      </trkpt>
      <trkpt lat="43.2044" lon="5.98866">
        <ele>310</ele>
        <time>2024-11-10T12:19:59Z</time>
      </trkpt>
      <trkpt lat="43.2035" lon="5.98881">
        <ele>309</ele>
        <time>2024-11-10T12:20:20Z</time>
      </trkpt>
      <trkpt lat="43.20292" lon="5.98885">
        <ele>312</ele>
        <time>2024-11-10T12:20:34Z</time>
      </trkpt>
      <trkpt lat="43.20284" lon="5.98878">
        <ele>314</ele>
        <time>2024-11-10T12:20:36Z</time>
      </trkpt>
      <trkpt lat="43.20278" lon="5.98869">
        <ele>316</ele>
        <time>2024-11-10T12:20:38Z</time>
      </trkpt>
      <trkpt lat="43.20276" lon="5.98854">
        <ele>319</ele>
        <time>2024-11-10T12:20:41Z</time>
      </trkpt>
      <trkpt lat="43.203" lon="5.98781">
        <ele>324</ele>
        <time>2024-11-10T12:20:54Z</time>
      </trkpt>
      <trkpt lat="43.20312" lon="5.98754">
        <ele>325</ele>
        <time>2024-11-10T12:21:00Z</time>
      </trkpt>
      <trkpt lat="43.20389" lon="5.98638">
        <ele>323</ele>
        <time>2024-11-10T12:21:26Z</time>
      </trkpt>
      <trkpt lat="43.2042" lon="5.98578">
        <ele>324</ele>
        <time>2024-11-10T12:21:39Z</time>
      </trkpt>
      <trkpt lat="43.20423" lon="5.98564">
        <ele>324</ele>
        <time>2024-11-10T12:21:41Z</time>
      </trkpt>
      <trkpt lat="43.20417" lon="5.98532">
        <ele>325</ele>
        <time>2024-11-10T12:21:47Z</time>
      </trkpt>
      <trkpt lat="43.20376" lon="5.98421">
        <ele>327</ele>
        <time>2024-11-10T12:22:08Z</time>
      </trkpt>
      <trkpt lat="43.20361" lon="5.98375">
        <ele>331</ele>
        <time>2024-11-10T12:22:17Z</time>
      </trkpt>
      <trkpt lat="43.20367" lon="5.98361">
        <ele>331</ele>
        <time>2024-11-10T12:22:20Z</time>
      </trkpt>
      <trkpt lat="43.20398" lon="5.98332">
        <ele>331</ele>
        <time>2024-11-10T12:22:28Z</time>
      </trkpt>
      <trkpt lat="43.20567" lon="5.98203">
        <ele>341</ele>
        <time>2024-11-10T12:23:13Z</time>
      </trkpt>
      <trkpt lat="43.20578" lon="5.98174">
        <ele>343</ele>
        <time>2024-11-10T12:23:19Z</time>
      </trkpt>
      <trkpt lat="43.20561" lon="5.98105">
        <ele>350</ele>
        <time>2024-11-10T12:23:31Z</time>
      </trkpt>
      <trkpt lat="43.20567" lon="5.98077">
        <ele>352</ele>
        <time>2024-11-10T12:23:36Z</time>
      </trkpt>
      <trkpt lat="43.20584" lon="5.98056">
        <ele>352</ele>
        <time>2024-11-10T12:23:42Z</time>
      </trkpt>
      <trkpt lat="43.20676" lon="5.98">
        <ele>352</ele>
        <time>2024-11-10T12:24:05Z</time>
      </trkpt>
      <trkpt lat="43.20807" lon="5.97894">
        <ele>368</ele>
        <time>2024-11-10T12:24:41Z</time>
      </trkpt>
      <trkpt lat="43.20837" lon="5.97898">
        <ele>367</ele>
        <time>2024-11-10T12:24:48Z</time>
      </trkpt>
      <trkpt lat="43.20859" lon="5.97901">
        <ele>368</ele>
        <time>2024-11-10T12:24:53Z</time>
      </trkpt>
      <trkpt lat="43.2089" lon="5.97929">
        <ele>366</ele>
        <time>2024-11-10T12:25:02Z</time>
      </trkpt>
      <trkpt lat="43.20924" lon="5.9797">
        <ele>368</ele>
        <time>2024-11-10T12:25:12Z</time>
      </trkpt>
      <trkpt lat="43.20952" lon="5.98037">
        <ele>374</ele>
        <time>2024-11-10T12:25:25Z</time>
      </trkpt>
      <trkpt lat="43.20961" lon="5.98088">
        <ele>375</ele>
        <time>2024-11-10T12:25:34Z</time>
      </trkpt>
      <trkpt lat="43.20977" lon="5.98137">
        <ele>377</ele>
        <time>2024-11-10T12:25:43Z</time>
      </trkpt>
      <trkpt lat="43.20991" lon="5.98159">
        <ele>380</ele>
        <time>2024-11-10T12:25:48Z</time>
      </trkpt>
      <trkpt lat="43.21016" lon="5.98167">
        <ele>385</ele>
        <time>2024-11-10T12:25:54Z</time>
      </trkpt>
      <trkpt lat="43.21032" lon="5.98167">
        <ele>388</ele>
        <time>2024-11-10T12:25:58Z</time>
      </trkpt>
      <trkpt lat="43.21038" lon="5.98189">
        <ele>389</ele>
        <time>2024-11-10T12:26:02Z</time>
      </trkpt>
      <trkpt lat="43.21034" lon="5.98234">
        <ele>388</ele>
        <time>2024-11-10T12:26:10Z</time>
      </trkpt>
      <trkpt lat="43.21058" lon="5.98272">
        <ele>391</ele>
        <time>2024-11-10T12:26:18Z</time>
      </trkpt>
      <trkpt lat="43.21118" lon="5.98346">
        <ele>393</ele>
        <time>2024-11-10T12:26:37Z</time>
      </trkpt>
      <trkpt lat="43.21166" lon="5.98371">
        <ele>397</ele>
        <time>2024-11-10T12:26:49Z</time>
      </trkpt>
      <trkpt lat="43.21199" lon="5.98375">
        <ele>398</ele>
        <time>2024-11-10T12:26:57Z</time>
      </trkpt>
      <trkpt lat="43.21222" lon="5.98381">
        <ele>399</ele>
        <time>2024-11-10T12:27:02Z</time>
      </trkpt>
      <trkpt lat="43.21279" lon="5.98366">
        <ele>403</ele>
        <time>2024-11-10T12:27:16Z</time>
      </trkpt>
      <trkpt lat="43.21342" lon="5.98364">
        <ele>403</ele>
        <time>2024-11-10T12:27:31Z</time>
      </trkpt>
      <trkpt lat="43.21379" lon="5.98356">
        <ele>404</ele>
        <time>2024-11-10T12:27:39Z</time>
      </trkpt>
      <trkpt lat="43.21472" lon="5.98328">
        <ele>406</ele>
        <time>2024-11-10T12:28:02Z</time>
      </trkpt>
      <trkpt lat="43.21502" lon="5.98316">
        <ele>407</ele>
        <time>2024-11-10T12:28:09Z</time>
      </trkpt>
      <trkpt lat="43.21523" lon="5.98297">
        <ele>409</ele>
        <time>2024-11-10T12:28:15Z</time>
      </trkpt>
      <trkpt lat="43.21591" lon="5.98231">
        <ele>412</ele>
        <time>2024-11-10T12:28:34Z</time>
      </trkpt>
      <trkpt lat="43.21628" lon="5.98156">
        <ele>421</ele>
        <time>2024-11-10T12:28:50Z</time>
      </trkpt>
      <trkpt lat="43.21642" lon="5.98134">
        <ele>425</ele>
        <time>2024-11-10T12:28:55Z</time>
      </trkpt>
      <trkpt lat="43.2167" lon="5.98125">
        <ele>426</ele>
        <time>2024-11-10T12:29:01Z</time>
      </trkpt>
      <trkpt lat="43.21729" lon="5.98113">
        <ele>425</ele>
        <time>2024-11-10T12:29:15Z</time>
      </trkpt>
      <trkpt lat="43.21746" lon="5.981">
        <ele>426</ele>
        <time>2024-11-10T12:29:20Z</time>
      </trkpt>
      <trkpt lat="43.21782" lon="5.9807">
        <ele>428</ele>
        <time>2024-11-10T12:29:30Z</time>
      </trkpt>
      <trkpt lat="43.21795" lon="5.98051">
        <ele>429</ele>
        <time>2024-11-10T12:29:34Z</time>
      </trkpt>
      <trkpt lat="43.21803" lon="5.98028">
        <ele>431</ele>
        <time>2024-11-10T12:29:39Z</time>
      </trkpt>
      <trkpt lat="43.21805" lon="5.98014">
        <ele>432</ele>
        <time>2024-11-10T12:29:41Z</time>
      </trkpt>
      <trkpt lat="43.21803" lon="5.98003">
        <ele>433</ele>
        <time>2024-11-10T12:29:43Z</time>
      </trkpt>
      <trkpt lat="43.21779" lon="5.97973">
        <ele>438</ele>
        <time>2024-11-10T12:29:50Z</time>
      </trkpt>
      <trkpt lat="43.21766" lon="5.97946">
        <ele>440</ele>
        <time>2024-11-10T12:29:56Z</time>
      </trkpt>
      <trkpt lat="43.21749" lon="5.97902">
        <ele>442</ele>
        <time>2024-11-10T12:30:04Z</time>
      </trkpt>
      <trkpt lat="43.21725" lon="5.97886">
        <ele>445</ele>
        <time>2024-11-10T12:30:11Z</time>
      </trkpt>
      <trkpt lat="43.21711" lon="5.97874">
        <ele>446</ele>
        <time>2024-11-10T12:30:15Z</time>
      </trkpt>
      <trkpt lat="43.21647" lon="5.97804">
        <ele>451</ele>
        <time>2024-11-10T12:30:34Z</time>
      </trkpt>
      <trkpt lat="43.21605" lon="5.97764">
        <ele>451</ele>
        <time>2024-11-10T12:30:46Z</time>
      </trkpt>
      <trkpt lat="43.21604" lon="5.97752">
        <ele>450</ele>
        <time>2024-11-10T12:30:48Z</time>
      </trkpt>
      <trkpt lat="43.21612" lon="5.97739">
        <ele>452</ele>
        <time>2024-11-10T12:30:51Z</time>
      </trkpt>
      <trkpt lat="43.21625" lon="5.97738">
        <ele>453</ele>
        <time>2024-11-10T12:30:54Z</time>
      </trkpt>
      <trkpt lat="43.2164" lon="5.97754">
        <ele>452</ele>
        <time>2024-11-10T12:30:58Z</time>
      </trkpt>
      <trkpt lat="43.2166" lon="5.97766">
        <ele>453</ele>
        <time>2024-11-10T12:31:03Z</time>
      </trkpt>
      <trkpt lat="43.21686" lon="5.97777">
        <ele>454</ele>
        <time>2024-11-10T12:31:09Z</time>
      </trkpt>
      <trkpt lat="43.21784" lon="5.9781">
        <ele>455</ele>
        <time>2024-11-10T12:31:33Z</time>
      </trkpt>
      <trkpt lat="43.21794" lon="5.97819">
        <ele>454</ele>
        <time>2024-11-10T12:31:36Z</time>
      </trkpt>
      <trkpt lat="43.21807" lon="5.97836">
        <ele>451</ele>
        <time>2024-11-10T12:31:40Z</time>
      </trkpt>
      <trkpt lat="43.21815" lon="5.97843">
        <ele>451</ele>
        <time>2024-11-10T12:31:42Z</time>
      </trkpt>
      <trkpt lat="43.2184" lon="5.97847">
        <ele>452</ele>
        <time>2024-11-10T12:31:48Z</time>
      </trkpt>
      <trkpt lat="43.21856" lon="5.97838">
        <ele>455</ele>
        <time>2024-11-10T12:31:52Z</time>
      </trkpt>
      <trkpt lat="43.21863" lon="5.97823">
        <ele>458</ele>
        <time>2024-11-10T12:31:55Z</time>
      </trkpt>
      <trkpt lat="43.21867" lon="5.97808">
        <ele>460</ele>
        <time>2024-11-10T12:31:58Z</time>
      </trkpt>
      <trkpt lat="43.21865" lon="5.97799">
        <ele>461</ele>
        <time>2024-11-10T12:31:59Z</time>
      </trkpt>
      <trkpt lat="43.21854" lon="5.97791">
        <ele>461</ele>
        <time>2024-11-10T12:32:02Z</time>
      </trkpt>
      <trkpt lat="43.21732" lon="5.97722">
        <ele>468</ele>
        <time>2024-11-10T12:32:33Z</time>
      </trkpt>
      <trkpt lat="43.21714" lon="5.97704">
        <ele>469</ele>
        <time>2024-11-10T12:32:38Z</time>
      </trkpt>
      <trkpt lat="43.21702" lon="5.97687">
        <ele>470</ele>
        <time>2024-11-10T12:32:42Z</time>
      </trkpt>
      <trkpt lat="43.21685" lon="5.97601">
        <ele>481</ele>
        <time>2024-11-10T12:32:58Z</time>
      </trkpt>
      <trkpt lat="43.21679" lon="5.97585">
        <ele>482</ele>
        <time>2024-11-10T12:33:01Z</time>
      </trkpt>
      <trkpt lat="43.21664" lon="5.97573">
        <ele>483</ele>
        <time>2024-11-10T12:33:05Z</time>
      </trkpt>
      <trkpt lat="43.2161" lon="5.97549">
        <ele>481</ele>
        <time>2024-11-10T12:33:18Z</time>
      </trkpt>
      <trkpt lat="43.21569" lon="5.97528">
        <ele>483</ele>
        <time>2024-11-10T12:33:28Z</time>
      </trkpt>
      <trkpt lat="43.2154" lon="5.97505">
        <ele>486</ele>
        <time>2024-11-10T12:33:36Z</time>
      </trkpt>
      <trkpt lat="43.21488" lon="5.97488">
        <ele>488</ele>
        <time>2024-11-10T12:33:48Z</time>
      </trkpt>
      <trkpt lat="43.21426" lon="5.9745">
        <ele>497</ele>
        <time>2024-11-10T12:34:04Z</time>
      </trkpt>
      <trkpt lat="43.21419" lon="5.97438">
        <ele>499</ele>
        <time>2024-11-10T12:34:07Z</time>
      </trkpt>
      <trkpt lat="43.21411" lon="5.97413">
        <ele>504</ele>
        <time>2024-11-10T12:34:12Z</time>
      </trkpt>
      <trkpt lat="43.21397" lon="5.9739">
        <ele>508</ele>
        <time>2024-11-10T12:34:17Z</time>
      </trkpt>
      <trkpt lat="43.21364" lon="5.97361">
        <ele>508</ele>
        <time>2024-11-10T12:34:26Z</time>
      </trkpt>
      <trkpt lat="43.21324" lon="5.97318">
        <ele>504</ele>
        <time>2024-11-10T12:34:38Z</time>
      </trkpt>
      <trkpt lat="43.21264" lon="5.97261">
        <ele>498</ele>
        <time>2024-11-10T12:34:55Z</time>
      </trkpt>
      <trkpt lat="43.21218" lon="5.97233">
        <ele>493</ele>
        <time>2024-11-10T12:35:07Z</time>
      </trkpt>
      <trkpt lat="43.21159" lon="5.97188">
        <ele>485</ele>
        <time>2024-11-10T12:35:22Z</time>
      </trkpt>
      <trkpt lat="43.21105" lon="5.9718">
        <ele>481</ele>
        <time>2024-11-10T12:35:35Z</time>
      </trkpt>
      <trkpt lat="43.21075" lon="5.97172">
        <ele>478</ele>
        <time>2024-11-10T12:35:42Z</time>
      </trkpt>
      <trkpt lat="43.2105" lon="5.97157">
        <ele>477</ele>
        <time>2024-11-10T12:35:48Z</time>
      </trkpt>
      <trkpt lat="43.21043" lon="5.97148">
        <ele>477</ele>
        <time>2024-11-10T12:35:51Z</time>
      </trkpt>
      <trkpt lat="43.21024" lon="5.97115">
        <ele>479</ele>
        <time>2024-11-10T12:35:58Z</time>
      </trkpt>
      <trkpt lat="43.20994" lon="5.97043">
        <ele>487</ele>
        <time>2024-11-10T12:36:12Z</time>
      </trkpt>
      <trkpt lat="43.20983" lon="5.97005">
        <ele>492</ele>
        <time>2024-11-10T12:36:19Z</time>
      </trkpt>
      <trkpt lat="43.20979" lon="5.96986">
        <ele>495</ele>
        <time>2024-11-10T12:36:22Z</time>
      </trkpt>
      <trkpt lat="43.2098" lon="5.96971">
        <ele>497</ele>
        <time>2024-11-10T12:36:25Z</time>
      </trkpt>
      <trkpt lat="43.20986" lon="5.96959">
        <ele>498</ele>
        <time>2024-11-10T12:36:27Z</time>
      </trkpt>
      <trkpt lat="43.21011" lon="5.96936">
        <ele>497</ele>
        <time>2024-11-10T12:36:34Z</time>
      </trkpt>
      <trkpt lat="43.21034" lon="5.96909">
        <ele>498</ele>
        <time>2024-11-10T12:36:41Z</time>
      </trkpt>
      <trkpt lat="43.21054" lon="5.9688">
        <ele>500</ele>
        <time>2024-11-10T12:36:48Z</time>
      </trkpt>
      <trkpt lat="43.21075" lon="5.96839">
        <ele>503</ele>
        <time>2024-11-10T12:36:57Z</time>
      </trkpt>
      <trkpt lat="43.21089" lon="5.96802">
        <ele>507</ele>
        <time>2024-11-10T12:37:04Z</time>
      </trkpt>
      <trkpt lat="43.21098" lon="5.96762">
        <ele>513</ele>
        <time>2024-11-10T12:37:11Z</time>
      </trkpt>
      <trkpt lat="43.21103" lon="5.96725">
        <ele>518</ele>
        <time>2024-11-10T12:37:17Z</time>
      </trkpt>
      <trkpt lat="43.21106" lon="5.96658">
        <ele>525</ele>
        <time>2024-11-10T12:37:29Z</time>
      </trkpt>
      <trkpt lat="43.21109" lon="5.96631">
        <ele>525</ele>
        <time>2024-11-10T12:37:33Z</time>
      </trkpt>
      <trkpt lat="43.21129" lon="5.96578">
        <ele>524</ele>
        <time>2024-11-10T12:37:44Z</time>
      </trkpt>
      <trkpt lat="43.21177" lon="5.96497">
        <ele>526</ele>
        <time>2024-11-10T12:38:01Z</time>
      </trkpt>
      <trkpt lat="43.21183" lon="5.96478">
        <ele>527</ele>
        <time>2024-11-10T12:38:05Z</time>
      </trkpt>
      <trkpt lat="43.21186" lon="5.96463">
        <ele>528</ele>
        <time>2024-11-10T12:38:08Z</time>
      </trkpt>
      <trkpt lat="43.21182" lon="5.9645">
        <ele>528</ele>
        <time>2024-11-10T12:38:10Z</time>
      </trkpt>
      <trkpt lat="43.21163" lon="5.96428">
        <ele>528</ele>
        <time>2024-11-10T12:38:16Z</time>
      </trkpt>
      <trkpt lat="43.21143" lon="5.96415">
        <ele>528</ele>
        <time>2024-11-10T12:38:21Z</time>
      </trkpt>
      <trkpt lat="43.21041" lon="5.964">
        <ele>529</ele>
        <time>2024-11-10T12:38:45Z</time>
      </trkpt>
      <trkpt lat="43.21009" lon="5.96385">
        <ele>530</ele>
        <time>2024-11-10T12:38:53Z</time>
      </trkpt>
      <trkpt lat="43.20989" lon="5.96369">
        <ele>532</ele>
        <time>2024-11-10T12:38:58Z</time>
      </trkpt>
      <trkpt lat="43.20961" lon="5.96289">
        <ele>537</ele>
        <time>2024-11-10T12:39:13Z</time>
      </trkpt>
      <trkpt lat="43.20963" lon="5.96261">
        <ele>538</ele>
        <time>2024-11-10T12:39:18Z</time>
      </trkpt>
      <trkpt lat="43.20969" lon="5.96234">
        <ele>541</ele>
        <time>2024-11-10T12:39:23Z</time>
      </trkpt>
      <trkpt lat="43.20982" lon="5.96205">
        <ele>544</ele>
        <time>2024-11-10T12:39:29Z</time>
      </trkpt>
      <trkpt lat="43.21006" lon="5.96168">
        <ele>547</ele>
        <time>2024-11-10T12:39:37Z</time>
      </trkpt>
      <trkpt lat="43.21016" lon="5.9616">
        <ele>550</ele>
        <time>2024-11-10T12:39:40Z</time>
      </trkpt>
      <trkpt lat="43.21041" lon="5.9616">
        <ele>551</ele>
        <time>2024-11-10T12:39:46Z</time>
      </trkpt>
      <trkpt lat="43.21079" lon="5.96165">
        <ele>552</ele>
        <time>2024-11-10T12:39:55Z</time>
      </trkpt>
      <trkpt lat="43.21103" lon="5.96173">
        <ele>553</ele>
        <time>2024-11-10T12:40:00Z</time>
      </trkpt>
      <trkpt lat="43.21124" lon="5.96186">
        <ele>552</ele>
        <time>2024-11-10T12:40:06Z</time>
      </trkpt>
      <trkpt lat="43.21154" lon="5.96213">
        <ele>550</ele>
        <time>2024-11-10T12:40:14Z</time>
      </trkpt>
      <trkpt lat="43.21175" lon="5.96217">
        <ele>550</ele>
        <time>2024-11-10T12:40:19Z</time>
      </trkpt>
      <trkpt lat="43.21186" lon="5.96216">
        <ele>549</ele>
        <time>2024-11-10T12:40:22Z</time>
      </trkpt>
      <trkpt lat="43.21198" lon="5.96208">
        <ele>550</ele>
        <time>2024-11-10T12:40:25Z</time>
      </trkpt>
      <trkpt lat="43.21216" lon="5.96179">
        <ele>554</ele>
        <time>2024-11-10T12:40:31Z</time>
      </trkpt>
      <trkpt lat="43.21248" lon="5.96077">
        <ele>561</ele>
        <time>2024-11-10T12:40:50Z</time>
      </trkpt>
      <trkpt lat="43.2126" lon="5.96054">
        <ele>562</ele>
        <time>2024-11-10T12:40:55Z</time>
      </trkpt>
      <trkpt lat="43.21263" lon="5.96035">
        <ele>564</ele>
        <time>2024-11-10T12:40:58Z</time>
      </trkpt>
      <trkpt lat="43.21253" lon="5.96005">
        <ele>566</ele>
        <time>2024-11-10T12:41:04Z</time>
      </trkpt>
      <trkpt lat="43.21254" lon="5.95992">
        <ele>567</ele>
        <time>2024-11-10T12:41:06Z</time>
      </trkpt>
      <trkpt lat="43.21268" lon="5.95973">
        <ele>569</ele>
        <time>2024-11-10T12:41:11Z</time>
      </trkpt>
      <trkpt lat="43.21285" lon="5.95942">
        <ele>572</ele>
        <time>2024-11-10T12:41:17Z</time>
      </trkpt>
      <trkpt lat="43.21293" lon="5.95896">
        <ele>576</ele>
        <time>2024-11-10T12:41:25Z</time>
      </trkpt>
      <trkpt lat="43.21321" lon="5.95792">
        <ele>583</ele>
        <time>2024-11-10T12:41:44Z</time>
      </trkpt>
      <trkpt lat="43.21337" lon="5.95774">
        <ele>584</ele>
        <time>2024-11-10T12:41:49Z</time>
      </trkpt>
      <trkpt lat="43.21389" lon="5.95699">
        <ele>588</ele>
        <time>2024-11-10T12:42:07Z</time>
      </trkpt>
      <trkpt lat="43.21396" lon="5.95679">
        <ele>589</ele>
        <time>2024-11-10T12:42:10Z</time>
      </trkpt>
      <trkpt lat="43.21395" lon="5.95674">
        <ele>590</ele>
        <time>2024-11-10T12:42:11Z</time>
      </trkpt>
      <trkpt lat="43.21386" lon="5.95667">
        <ele>590</ele>
        <time>2024-11-10T12:42:14Z</time>
      </trkpt>
      <trkpt lat="43.2115" lon="5.95717">
        <ele>604</ele>
        <time>2024-11-10T12:43:10Z</time>
      </trkpt>
      <trkpt lat="43.21141" lon="5.9571">
        <ele>605</ele>
        <time>2024-11-10T12:43:12Z</time>
      </trkpt>
      <trkpt lat="43.21141" lon="5.95697">
        <ele>607</ele>
        <time>2024-11-10T12:43:14Z</time>
      </trkpt>
      <trkpt lat="43.21148" lon="5.95689">
        <ele>608</ele>
        <time>2024-11-10T12:43:16Z</time>
      </trkpt>
      <trkpt lat="43.2117" lon="5.95678">
        <ele>608</ele>
        <time>2024-11-10T12:43:22Z</time>
      </trkpt>
      <trkpt lat="43.21186" lon="5.95661">
        <ele>609</ele>
        <time>2024-11-10T12:43:26Z</time>
      </trkpt>
      <trkpt lat="43.21207" lon="5.95625">
        <ele>613</ele>
        <time>2024-11-10T12:43:34Z</time>
      </trkpt>
      <trkpt lat="43.21232" lon="5.95593">
        <ele>616</ele>
        <time>2024-11-10T12:43:42Z</time>
      </trkpt>
      <trkpt lat="43.2142" lon="5.95417">
        <ele>634</ele>
        <time>2024-11-10T12:44:35Z</time>
      </trkpt>
      <trkpt lat="43.21441" lon="5.95381">
        <ele>636</ele>
        <time>2024-11-10T12:44:43Z</time>
      </trkpt>
      <trkpt lat="43.21468" lon="5.95305">
        <ele>640</ele>
        <time>2024-11-10T12:44:58Z</time>
      </trkpt>
      <trkpt lat="43.21471" lon="5.9528">
        <ele>642</ele>
        <time>2024-11-10T12:45:02Z</time>
      </trkpt>
      <trkpt lat="43.21467" lon="5.95236">
        <ele>644</ele>
        <time>2024-11-10T12:45:10Z</time>
      </trkpt>
      <trkpt lat="43.21432" lon="5.95077">
        <ele>649</ele>
        <time>2024-11-10T12:45:38Z</time>
      </trkpt>
      <trkpt lat="43.21429" lon="5.95047">
        <ele>650</ele>
        <time>2024-11-10T12:45:43Z</time>
      </trkpt>
      <trkpt lat="43.21429" lon="5.95015">
        <ele>650</ele>
        <time>2024-11-10T12:45:48Z</time>
      </trkpt>
      <trkpt lat="43.21432" lon="5.94956">
        <ele>650</ele>
        <time>2024-11-10T12:45:58Z</time>
      </trkpt>
      <trkpt lat="43.21434" lon="5.94936">
        <ele>650</ele>
        <time>2024-11-10T12:46:02Z</time>
      </trkpt>
      <trkpt lat="43.21442" lon="5.94911">
        <ele>650</ele>
        <time>2024-11-10T12:46:07Z</time>
      </trkpt>
      <trkpt lat="43.21518" lon="5.94734">
        <ele>654</ele>
        <time>2024-11-10T12:46:42Z</time>
      </trkpt>
      <trkpt lat="43.2153" lon="5.94712">
        <ele>655</ele>
        <time>2024-11-10T12:46:46Z</time>
      </trkpt>
      <trkpt lat="43.21551" lon="5.94683">
        <ele>655</ele>
        <time>2024-11-10T12:46:53Z</time>
      </trkpt>
      <trkpt lat="43.21629" lon="5.94611">
        <ele>657</ele>
        <time>2024-11-10T12:47:15Z</time>
      </trkpt>
      <trkpt lat="43.21635" lon="5.94604">
        <ele>657</ele>
        <time>2024-11-10T12:47:17Z</time>
      </trkpt>
      <trkpt lat="43.21644" lon="5.94586">
        <ele>657</ele>
        <time>2024-11-10T12:47:21Z</time>
      </trkpt>
      <trkpt lat="43.21646" lon="5.94576">
        <ele>658</ele>
        <time>2024-11-10T12:47:22Z</time>
      </trkpt>
      <trkpt lat="43.21647" lon="5.94564">
        <ele>659</ele>
        <time>2024-11-10T12:47:25Z</time>
      </trkpt>
      <trkpt lat="43.21642" lon="5.94511">
        <ele>663</ele>
        <time>2024-11-10T12:47:34Z</time>
      </trkpt>
      <trkpt lat="43.21645" lon="5.94493">
        <ele>664</ele>
        <time>2024-11-10T12:47:37Z</time>
      </trkpt>
      <trkpt lat="43.2166" lon="5.94456">
        <ele>665</ele>
        <time>2024-11-10T12:47:44Z</time>
      </trkpt>
      <trkpt lat="43.21743" lon="5.94291">
        <ele>665</ele>
        <time>2024-11-10T12:48:18Z</time>
      </trkpt>
      <trkpt lat="43.21768" lon="5.94233">
        <ele>664</ele>
        <time>2024-11-10T12:48:30Z</time>
      </trkpt>
      <trkpt lat="43.21776" lon="5.94209">
        <ele>663</ele>
        <time>2024-11-10T12:48:34Z</time>
      </trkpt>
      <trkpt lat="43.21778" lon="5.94194">
        <ele>662</ele>
        <time>2024-11-10T12:48:37Z</time>
      </trkpt>
      <trkpt lat="43.21769" lon="5.9412">
        <ele>660</ele>
        <time>2024-11-10T12:48:49Z</time>
      </trkpt>
      <trkpt lat="43.21771" lon="5.94101">
        <ele>659</ele>
        <time>2024-11-10T12:48:53Z</time>
      </trkpt>
      <trkpt lat="43.21781" lon="5.94077">
        <ele>658</ele>
        <time>2024-11-10T12:48:57Z</time>
      </trkpt>
      <trkpt lat="43.21819" lon="5.94012">
        <ele>657</ele>
        <time>2024-11-10T12:49:12Z</time>
      </trkpt>
      <trkpt lat="43.21851" lon="5.93971">
        <ele>657</ele>
        <time>2024-11-10T12:49:22Z</time>
      </trkpt>
      <trkpt lat="43.21962" lon="5.93846">
        <ele>658</ele>
        <time>2024-11-10T12:49:55Z</time>
      </trkpt>
      <trkpt lat="43.22007" lon="5.93799">
        <ele>659</ele>
        <time>2024-11-10T12:50:09Z</time>
      </trkpt>
      <trkpt lat="43.22015" lon="5.93789">
        <ele>659</ele>
        <time>2024-11-10T12:50:11Z</time>
      </trkpt>
      <trkpt lat="43.22026" lon="5.93766">
        <ele>658</ele>
        <time>2024-11-10T12:50:16Z</time>
      </trkpt>
      <trkpt lat="43.22031" lon="5.93743">
        <ele>658</ele>
        <time>2024-11-10T12:50:20Z</time>
      </trkpt>
      <trkpt lat="43.2203" lon="5.93728">
        <ele>657</ele>
        <time>2024-11-10T12:50:22Z</time>
      </trkpt>
      <trkpt lat="43.22023" lon="5.93653">
        <ele>654</ele>
        <time>2024-11-10T12:50:35Z</time>
      </trkpt>
      <trkpt lat="43.22023" lon="5.93637">
        <ele>654</ele>
        <time>2024-11-10T12:50:38Z</time>
      </trkpt>
      <trkpt lat="43.22026" lon="5.93626">
        <ele>653</ele>
        <time>2024-11-10T12:50:40Z</time>
      </trkpt>
      <trkpt lat="43.22029" lon="5.93623">
        <ele>652</ele>
        <time>2024-11-10T12:50:41Z</time>
      </trkpt>
      <trkpt lat="43.22033" lon="5.93622">
        <ele>652</ele>
        <time>2024-11-10T12:50:42Z</time>
      </trkpt>
      <trkpt lat="43.22041" lon="5.93625">
        <ele>651</ele>
        <time>2024-11-10T12:50:44Z</time>
      </trkpt>
      <trkpt lat="43.22086" lon="5.93648">
        <ele>649</ele>
        <time>2024-11-10T12:50:55Z</time>
      </trkpt>
      <trkpt lat="43.22095" lon="5.93646">
        <ele>648</ele>
        <time>2024-11-10T12:50:57Z</time>
      </trkpt>
      <trkpt lat="43.22104" lon="5.93641">
        <ele>647</ele>
        <time>2024-11-10T12:50:59Z</time>
      </trkpt>
      <trkpt lat="43.2211" lon="5.93633">
        <ele>646</ele>
        <time>2024-11-10T12:51:01Z</time>
      </trkpt>
      <trkpt lat="43.22256" lon="5.93361">
        <ele>645</ele>
        <time>2024-11-10T12:51:59Z</time>
      </trkpt>
      <trkpt lat="43.22288" lon="5.93299">
        <ele>648</ele>
        <time>2024-11-10T12:52:12Z</time>
      </trkpt>
      <trkpt lat="43.22299" lon="5.93287">
        <ele>650</ele>
        <time>2024-11-10T12:52:15Z</time>
      </trkpt>
      <trkpt lat="43.22311" lon="5.93282">
        <ele>651</ele>
        <time>2024-11-10T12:52:18Z</time>
      </trkpt>
      <trkpt lat="43.22416" lon="5.93266">
        <ele>665</ele>
        <time>2024-11-10T12:52:43Z</time>
      </trkpt>
      <trkpt lat="43.2245" lon="5.93257">
        <ele>667</ele>
        <time>2024-11-10T12:52:51Z</time>
      </trkpt>
      <trkpt lat="43.22495" lon="5.9324">
        <ele>670</ele>
        <time>2024-11-10T12:53:02Z</time>
      </trkpt>
      <trkpt lat="43.22509" lon="5.9323">
        <ele>672</ele>
        <time>2024-11-10T12:53:05Z</time>
      </trkpt>
      <trkpt lat="43.22527" lon="5.93209">
        <ele>673</ele>
        <time>2024-11-10T12:53:11Z</time>
      </trkpt>
      <trkpt lat="43.22553" lon="5.93173">
        <ele>673</ele>
        <time>2024-11-10T12:53:19Z</time>
      </trkpt>
      <trkpt lat="43.22565" lon="5.93152">
        <ele>672</ele>
        <time>2024-11-10T12:53:24Z</time>
      </trkpt>
      <trkpt lat="43.22628" lon="5.93033">
        <ele>669</ele>
        <time>2024-11-10T12:53:49Z</time>
      </trkpt>
      <trkpt lat="43.22634" lon="5.93014">
        <ele>669</ele>
        <time>2024-11-10T12:53:52Z</time>
      </trkpt>
      <trkpt lat="43.22642" lon="5.92964">
        <ele>666</ele>
        <time>2024-11-10T12:54:01Z</time>
      </trkpt>
      <trkpt lat="43.22643" lon="5.92936">
        <ele>665</ele>
        <time>2024-11-10T12:54:06Z</time>
      </trkpt>
      <trkpt lat="43.22642" lon="5.92785">
        <ele>655</ele>
        <time>2024-11-10T12:54:32Z</time>
      </trkpt>
      <trkpt lat="43.22647" lon="5.92746">
        <ele>652</ele>
        <time>2024-11-10T12:54:38Z</time>
      </trkpt>
      <trkpt lat="43.22652" lon="5.92726">
        <ele>652</ele>
        <time>2024-11-10T12:54:42Z</time>
      </trkpt>
      <trkpt lat="43.22661" lon="5.92698">
        <ele>651</ele>
        <time>2024-11-10T12:54:47Z</time>
      </trkpt>
      <trkpt lat="43.22684" lon="5.92638">
        <ele>650</ele>
        <time>2024-11-10T12:54:59Z</time>
      </trkpt>
      <trkpt lat="43.2269" lon="5.92616">
        <ele>650</ele>
        <time>2024-11-10T12:55:03Z</time>
      </trkpt>
      <trkpt lat="43.22697" lon="5.92562">
        <ele>649</ele>
        <time>2024-11-10T12:55:12Z</time>
      </trkpt>
      <trkpt lat="43.22696" lon="5.92536">
        <ele>647</ele>
        <time>2024-11-10T12:55:17Z</time>
      </trkpt>
      <trkpt lat="43.2272" lon="5.91735">
        <ele>639</ele>
        <time>2024-11-10T12:57:33Z</time>
      </trkpt>
      <trkpt lat="43.22716" lon="5.91669">
        <ele>642</ele>
        <time>2024-11-10T12:57:44Z</time>
      </trkpt>
      <trkpt lat="43.22714" lon="5.91604">
        <ele>645</ele>
        <time>2024-11-10T12:57:55Z</time>
      </trkpt>
      <trkpt lat="43.22719" lon="5.91564">
        <ele>647</ele>
        <time>2024-11-10T12:58:02Z</time>
      </trkpt>
      <trkpt lat="43.22728" lon="5.91536">
        <ele>649</ele>
        <time>2024-11-10T12:58:07Z</time>
      </trkpt>
      <trkpt lat="43.22734" lon="5.91527">
        <ele>649</ele>
        <time>2024-11-10T12:58:09Z</time>
      </trkpt>
      <trkpt lat="43.2275" lon="5.91508">
        <ele>649</ele>
        <time>2024-11-10T12:58:14Z</time>
      </trkpt>
      <trkpt lat="43.22783" lon="5.91477">
        <ele>651</ele>
        <time>2024-11-10T12:58:24Z</time>
      </trkpt>
      <trkpt lat="43.22802" lon="5.91453">
        <ele>653</ele>
        <time>2024-11-10T12:58:30Z</time>
      </trkpt>
      <trkpt lat="43.22837" lon="5.91394">
        <ele>658</ele>
        <time>2024-11-10T12:58:43Z</time>
      </trkpt>
      <trkpt lat="43.22853" lon="5.91379">
        <ele>660</ele>
        <time>2024-11-10T12:58:47Z</time>
      </trkpt>
      <trkpt lat="43.22922" lon="5.91332">
        <ele>663</ele>
        <time>2024-11-10T12:59:05Z</time>
      </trkpt>
      <trkpt lat="43.2295" lon="5.91306">
        <ele>665</ele>
        <time>2024-11-10T12:59:13Z</time>
      </trkpt>
      <trkpt lat="43.22975" lon="5.91273">
        <ele>668</ele>
        <time>2024-11-10T12:59:21Z</time>
      </trkpt>
      <trkpt lat="43.22995" lon="5.91238">
        <ele>670</ele>
        <time>2024-11-10T12:59:29Z</time>
      </trkpt>
      <trkpt lat="43.23018" lon="5.9118">
        <ele>672</ele>
        <time>2024-11-10T12:59:40Z</time>
      </trkpt>
      <trkpt lat="43.23026" lon="5.9117">
        <ele>672</ele>
        <time>2024-11-10T12:59:43Z</time>
      </trkpt>
      <trkpt lat="43.2308" lon="5.91119">
        <ele>675</ele>
        <time>2024-11-10T12:59:58Z</time>
      </trkpt>
      <trkpt lat="43.23108" lon="5.91102">
        <ele>676</ele>
        <time>2024-11-10T13:00:05Z</time>
      </trkpt>
      <trkpt lat="43.2312" lon="5.91092">
        <ele>676</ele>
        <time>2024-11-10T13:00:08Z</time>
      </trkpt>
      <trkpt lat="43.23149" lon="5.91053">
        <ele>679</ele>
        <time>2024-11-10T13:00:18Z</time>
      </trkpt>
      <trkpt lat="43.23165" lon="5.91018">
        <ele>681</ele>
        <time>2024-11-10T13:00:25Z</time>
      </trkpt>
      <trkpt lat="43.23206" lon="5.90951">
        <ele>684</ele>
        <time>2024-11-10T13:00:40Z</time>
      </trkpt>
      <trkpt lat="43.23214" lon="5.90942">
        <ele>684</ele>
        <time>2024-11-10T13:00:42Z</time>
      </trkpt>
      <trkpt lat="43.23221" lon="5.90936">
        <ele>684</ele>
        <time>2024-11-10T13:00:44Z</time>
      </trkpt>
      <trkpt lat="43.23251" lon="5.90925">
        <ele>685</ele>
        <time>2024-11-10T13:00:51Z</time>
      </trkpt>
      <trkpt lat="43.23262" lon="5.90918">
        <ele>686</ele>
        <time>2024-11-10T13:00:54Z</time>
      </trkpt>
      <trkpt lat="43.2328" lon="5.90895">
        <ele>688</ele>
        <time>2024-11-10T13:01:00Z</time>
      </trkpt>
      <trkpt lat="43.23316" lon="5.90837">
        <ele>691</ele>
        <time>2024-11-10T13:01:13Z</time>
      </trkpt>
      <trkpt lat="43.23351" lon="5.90788">
        <ele>693</ele>
        <time>2024-11-10T13:01:24Z</time>
      </trkpt>
      <trkpt lat="43.23383" lon="5.9074">
        <ele>694</ele>
        <time>2024-11-10T13:01:36Z</time>
      </trkpt>
      <trkpt lat="43.23398" lon="5.90714">
        <ele>694</ele>
        <time>2024-11-10T13:01:41Z</time>
      </trkpt>
      <trkpt lat="43.23408" lon="5.90688">
        <ele>694</ele>
        <time>2024-11-10T13:01:46Z</time>
      </trkpt>
      <trkpt lat="43.23423" lon="5.90631">
        <ele>693</ele>
        <time>2024-11-10T13:01:57Z</time>
      </trkpt>
      <trkpt lat="43.23436" lon="5.90565">
        <ele>689</ele>
        <time>2024-11-10T13:02:08Z</time>
      </trkpt>
      <trkpt lat="43.23436" lon="5.90548">
        <ele>688</ele>
        <time>2024-11-10T13:02:11Z</time>
      </trkpt>
      <trkpt lat="43.23434" lon="5.90536">
        <ele>687</ele>
        <time>2024-11-10T13:02:13Z</time>
      </trkpt>
      <trkpt lat="43.23423" lon="5.90512">
        <ele>685</ele>
        <time>2024-11-10T13:02:18Z</time>
      </trkpt>
      <trkpt lat="43.23402" lon="5.90474">
        <ele>682</ele>
        <time>2024-11-10T13:02:26Z</time>
      </trkpt>
      <trkpt lat="43.23395" lon="5.9045">
        <ele>680</ele>
        <time>2024-11-10T13:02:30Z</time>
      </trkpt>
      <trkpt lat="43.23349" lon="5.90204">
        <ele>667</ele>
        <time>2024-11-10T13:03:14Z</time>
      </trkpt>
      <trkpt lat="43.2335" lon="5.90169">
        <ele>665</ele>
        <time>2024-11-10T13:03:20Z</time>
      </trkpt>
      <trkpt lat="43.23357" lon="5.90129">
        <ele>663</ele>
        <time>2024-11-10T13:03:27Z</time>
      </trkpt>
      <trkpt lat="43.23363" lon="5.90106">
        <ele>662</ele>
        <time>2024-11-10T13:03:31Z</time>
      </trkpt>
      <trkpt lat="43.23382" lon="5.90085">
        <ele>660</ele>
        <time>2024-11-10T13:03:36Z</time>
      </trkpt>
      <trkpt lat="43.23419" lon="5.90065">
        <ele>656</ele>
        <time>2024-11-10T13:03:46Z</time>
      </trkpt>
      <trkpt lat="43.23431" lon="5.90056">
        <ele>656</ele>
        <time>2024-11-10T13:03:49Z</time>
      </trkpt>
      <trkpt lat="43.23441" lon="5.90046">
        <ele>656</ele>
        <time>2024-11-10T13:03:52Z</time>
      </trkpt>
      <trkpt lat="43.23453" lon="5.90026">
        <ele>656</ele>
        <time>2024-11-10T13:03:56Z</time>
      </trkpt>
      <trkpt lat="43.2346" lon="5.90003">
        <ele>655</ele>
        <time>2024-11-10T13:04:01Z</time>
      </trkpt>
      <trkpt lat="43.23459" lon="5.89976">
        <ele>653</ele>
        <time>2024-11-10T13:04:05Z</time>
      </trkpt>
      <trkpt lat="43.23451" lon="5.89949">
        <ele>651</ele>
        <time>2024-11-10T13:04:10Z</time>
      </trkpt>
      <trkpt lat="43.23436" lon="5.89912">
        <ele>648</ele>
        <time>2024-11-10T13:04:17Z</time>
      </trkpt>
      <trkpt lat="43.23434" lon="5.89903">
        <ele>647</ele>
        <time>2024-11-10T13:04:19Z</time>
      </trkpt>
      <trkpt lat="43.23433" lon="5.8989">
        <ele>647</ele>
        <time>2024-11-10T13:04:21Z</time>
      </trkpt>
      <trkpt lat="43.23444" lon="5.89824">
        <ele>645</ele>
        <time>2024-11-10T13:04:33Z</time>
      </trkpt>
      <trkpt lat="43.23448" lon="5.89739">
        <ele>642</ele>
        <time>2024-11-10T13:04:47Z</time>
      </trkpt>
      <trkpt lat="43.23447" lon="5.89666">
        <ele>641</ele>
        <time>2024-11-10T13:05:00Z</time>
      </trkpt>
      <trkpt lat="43.23449" lon="5.89658">
        <ele>640</ele>
        <time>2024-11-10T13:05:01Z</time>
      </trkpt>
      <trkpt lat="43.23474" lon="5.89611">
        <ele>634</ele>
        <time>2024-11-10T13:05:11Z</time>
      </trkpt>
      <trkpt lat="43.23485" lon="5.89552">
        <ele>628</ele>
        <time>2024-11-10T13:05:21Z</time>
      </trkpt>
      <trkpt lat="43.23488" lon="5.89546">
        <ele>627</ele>
        <time>2024-11-10T13:05:22Z</time>
      </trkpt>
      <trkpt lat="43.23495" lon="5.8954">
        <ele>625</ele>
        <time>2024-11-10T13:05:24Z</time>
      </trkpt>
      <trkpt lat="43.235" lon="5.89539">
        <ele>624</ele>
        <time>2024-11-10T13:05:26Z</time>
      </trkpt>
      <trkpt lat="43.23525" lon="5.8955">
        <ele>624</ele>
        <time>2024-11-10T13:05:32Z</time>
      </trkpt>
      <trkpt lat="43.23531" lon="5.89552">
        <ele>624</ele>
        <time>2024-11-10T13:05:33Z</time>
      </trkpt>
      <trkpt lat="43.23537" lon="5.8955">
        <ele>623</ele>
        <time>2024-11-10T13:05:35Z</time>
      </trkpt>
      <trkpt lat="43.23541" lon="5.89547">
        <ele>623</ele>
        <time>2024-11-10T13:05:36Z</time>
      </trkpt>
      <trkpt lat="43.23552" lon="5.89515">
        <ele>619</ele>
        <time>2024-11-10T13:05:42Z</time>
      </trkpt>
      <trkpt lat="43.2357" lon="5.89482">
        <ele>615</ele>
        <time>2024-11-10T13:05:49Z</time>
      </trkpt>
      <trkpt lat="43.2359" lon="5.89468">
        <ele>614</ele>
        <time>2024-11-10T13:05:54Z</time>
      </trkpt>
      <trkpt lat="43.23617" lon="5.89471">
        <ele>614</ele>
        <time>2024-11-10T13:06:00Z</time>
      </trkpt>
      <trkpt lat="43.23641" lon="5.89469">
        <ele>614</ele>
        <time>2024-11-10T13:06:06Z</time>
      </trkpt>
      <trkpt lat="43.23679" lon="5.89453">
        <ele>615</ele>
        <time>2024-11-10T13:06:15Z</time>
      </trkpt>
      <trkpt lat="43.23703" lon="5.89425">
        <ele>615</ele>
        <time>2024-11-10T13:06:23Z</time>
      </trkpt>
      <trkpt lat="43.23717" lon="5.89366">
        <ele>616</ele>
        <time>2024-11-10T13:06:33Z</time>
      </trkpt>
      <trkpt lat="43.23731" lon="5.89314">
        <ele>617</ele>
        <time>2024-11-10T13:06:43Z</time>
      </trkpt>
      <trkpt lat="43.23732" lon="5.89252">
        <ele>618</ele>
        <time>2024-11-10T13:06:53Z</time>
      </trkpt>
      <trkpt lat="43.23731" lon="5.8909">
        <ele>615</ele>
        <time>2024-11-10T13:07:21Z</time>
      </trkpt>
      <trkpt lat="43.23726" lon="5.89049">
        <ele>614</ele>
        <time>2024-11-10T13:07:28Z</time>
      </trkpt>
      <trkpt lat="43.23713" lon="5.89001">
        <ele>613</ele>
        <time>2024-11-10T13:07:36Z</time>
      </trkpt>
      <trkpt lat="43.23719" lon="5.88953">
        <ele>611</ele>
        <time>2024-11-10T13:07:45Z</time>
      </trkpt>
      <trkpt lat="43.23732" lon="5.88901">
        <ele>610</ele>
        <time>2024-11-10T13:07:54Z</time>
      </trkpt>
      <trkpt lat="43.23832" lon="5.8878">
        <ele>613</ele>
        <time>2024-11-10T13:08:25Z</time>
      </trkpt>
      <trkpt lat="43.23872" lon="5.88698">
        <ele>612</ele>
        <time>2024-11-10T13:08:42Z</time>
      </trkpt>
      <trkpt lat="43.23887" lon="5.88633">
        <ele>611</ele>
        <time>2024-11-10T13:08:54Z</time>
      </trkpt>
      <trkpt lat="43.23904" lon="5.8851">
        <ele>610</ele>
        <time>2024-11-10T13:09:15Z</time>
      </trkpt>
      <trkpt lat="43.23908" lon="5.88452">
        <ele>607</ele>
        <time>2024-11-10T13:09:25Z</time>
      </trkpt>
      <trkpt lat="43.23899" lon="5.88387">
        <ele>605</ele>
        <time>2024-11-10T13:09:36Z</time>
      </trkpt>
      <trkpt lat="43.23893" lon="5.8836">
        <ele>604</ele>
        <time>2024-11-10T13:09:41Z</time>
      </trkpt>
      <trkpt lat="43.23878" lon="5.88325">
        <ele>602</ele>
        <time>2024-11-10T13:09:48Z</time>
      </trkpt>
      <trkpt lat="43.23853" lon="5.88287">
        <ele>601</ele>
        <time>2024-11-10T13:09:56Z</time>
      </trkpt>
      <trkpt lat="43.23836" lon="5.88231">
        <ele>598</ele>
        <time>2024-11-10T13:10:07Z</time>
      </trkpt>
      <trkpt lat="43.23841" lon="5.8818">
        <ele>597</ele>
        <time>2024-11-10T13:10:16Z</time>
      </trkpt>
      <trkpt lat="43.23854" lon="5.88136">
        <ele>595</ele>
        <time>2024-11-10T13:10:24Z</time>
      </trkpt>
      <trkpt lat="43.23857" lon="5.88125">
        <ele>594</ele>
        <time>2024-11-10T13:10:26Z</time>
      </trkpt>
      <trkpt lat="43.23863" lon="5.88076">
        <ele>592</ele>
        <time>2024-11-10T13:10:34Z</time>
      </trkpt>
      <trkpt lat="43.23857" lon="5.87992">
        <ele>589</ele>
        <time>2024-11-10T13:10:48Z</time>
      </trkpt>
      <trkpt lat="43.23849" lon="5.87943">
        <ele>587</ele>
        <time>2024-11-10T13:10:57Z</time>
      </trkpt>
      <trkpt lat="43.23848" lon="5.87922">
        <ele>586</ele>
        <time>2024-11-10T13:11:01Z</time>
      </trkpt>
      <trkpt lat="43.23855" lon="5.87854">
        <ele>586</ele>
        <time>2024-11-10T13:11:12Z</time>
      </trkpt>
      <trkpt lat="43.23871" lon="5.87772">
        <ele>586</ele>
        <time>2024-11-10T13:11:27Z</time>
      </trkpt>
      <trkpt lat="43.23941" lon="5.87577">
        <ele>584</ele>
        <time>2024-11-10T13:12:04Z</time>
      </trkpt>
      <trkpt lat="43.24009" lon="5.87425">
        <ele>580</ele>
        <time>2024-11-10T13:12:34Z</time>
      </trkpt>
      <trkpt lat="43.24048" lon="5.87329">
        <ele>580</ele>
        <time>2024-11-10T13:12:53Z</time>
      </trkpt>
      <trkpt lat="43.24064" lon="5.87296">
        <ele>579</ele>
        <time>2024-11-10T13:12:59Z</time>
      </trkpt>
      <trkpt lat="43.24111" lon="5.87135">
        <ele>581</ele>
        <time>2024-11-10T13:13:29Z</time>
      </trkpt>
      <trkpt lat="43.2423" lon="5.86877">
        <ele>587</ele>
        <time>2024-11-10T13:14:21Z</time>
      </trkpt>
      <trkpt lat="43.24251" lon="5.86836">
        <ele>586</ele>
        <time>2024-11-10T13:14:29Z</time>
      </trkpt>
      <trkpt lat="43.24291" lon="5.86787">
        <ele>589</ele>
        <time>2024-11-10T13:14:42Z</time>
      </trkpt>
      <trkpt lat="43.2433" lon="5.86705">
        <ele>590</ele>
        <time>2024-11-10T13:14:59Z</time>
      </trkpt>
      <trkpt lat="43.2435" lon="5.86614">
        <ele>592</ele>
        <time>2024-11-10T13:15:15Z</time>
      </trkpt>
      <trkpt lat="43.2437" lon="5.86565">
        <ele>594</ele>
        <time>2024-11-10T13:15:24Z</time>
      </trkpt>
      <trkpt lat="43.24423" lon="5.8645">
        <ele>594</ele>
        <time>2024-11-10T13:15:47Z</time>
      </trkpt>
      <trkpt lat="43.24459" lon="5.86388">
        <ele>593</ele>
        <time>2024-11-10T13:16:01Z</time>
      </trkpt>
      <trkpt lat="43.24516" lon="5.8631">
        <ele>594</ele>
        <time>2024-11-10T13:16:20Z</time>
      </trkpt>
      <trkpt lat="43.24555" lon="5.86261">
        <ele>594</ele>
        <time>2024-11-10T13:16:32Z</time>
      </trkpt>
      <trkpt lat="43.24584" lon="5.86235">
        <ele>594</ele>
        <time>2024-11-10T13:16:40Z</time>
      </trkpt>
      <trkpt lat="43.24826" lon="5.86038">
        <ele>598</ele>
        <time>2024-11-10T13:17:46Z</time>
      </trkpt>
      <trkpt lat="43.24909" lon="5.85954">
        <ele>600</ele>
        <time>2024-11-10T13:18:10Z</time>
      </trkpt>
      <trkpt lat="43.25007" lon="5.85827">
        <ele>604</ele>
        <time>2024-11-10T13:18:41Z</time>
      </trkpt>
      <trkpt lat="43.25101" lon="5.85737">
        <ele>605</ele>
        <time>2024-11-10T13:19:08Z</time>
      </trkpt>
      <trkpt lat="43.25215" lon="5.8564">
        <ele>612</ele>
        <time>2024-11-10T13:19:40Z</time>
      </trkpt>
      <trkpt lat="43.25332" lon="5.85552">
        <ele>614</ele>
        <time>2024-11-10T13:20:11Z</time>
      </trkpt>
      <trkpt lat="43.25417" lon="5.85469">
        <ele>617</ele>
        <time>2024-11-10T13:20:35Z</time>
      </trkpt>
      <trkpt lat="43.2548" lon="5.8543">
        <ele>620</ele>
        <time>2024-11-10T13:20:51Z</time>
      </trkpt>
      <trkpt lat="43.25502" lon="5.85423">
        <ele>620</ele>
        <time>2024-11-10T13:20:56Z</time>
      </trkpt>
      <trkpt lat="43.25526" lon="5.85425">
        <ele>621</ele>
        <time>2024-11-10T13:21:02Z</time>
      </trkpt>
      <trkpt lat="43.25579" lon="5.85438">
        <ele>624</ele>
        <time>2024-11-10T13:21:15Z</time>
      </trkpt>
      <trkpt lat="43.256" lon="5.85439">
        <ele>625</ele>
        <time>2024-11-10T13:21:20Z</time>
      </trkpt>
      <trkpt lat="43.2562" lon="5.85433">
        <ele>626</ele>
        <time>2024-11-10T13:21:24Z</time>
      </trkpt>
      <trkpt lat="43.25643" lon="5.85403">
        <ele>627</ele>
        <time>2024-11-10T13:21:32Z</time>
      </trkpt>
      <trkpt lat="43.25675" lon="5.85339">
        <ele>627</ele>
        <time>2024-11-10T13:21:45Z</time>
      </trkpt>
      <trkpt lat="43.2572" lon="5.85253">
        <ele>627</ele>
        <time>2024-11-10T13:22:03Z</time>
      </trkpt>
      <trkpt lat="43.25757" lon="5.85207">
        <ele>626</ele>
        <time>2024-11-10T13:22:15Z</time>
      </trkpt>
      <trkpt lat="43.25804" lon="5.85185">
        <ele>624</ele>
        <time>2024-11-10T13:22:26Z</time>
      </trkpt>
      <trkpt lat="43.25845" lon="5.85173">
        <ele>623</ele>
        <time>2024-11-10T13:22:36Z</time>
      </trkpt>
      <trkpt lat="43.26056" lon="5.85134">
        <ele>612</ele>
        <time>2024-11-10T13:23:26Z</time>
      </trkpt>
      <trkpt lat="43.26102" lon="5.85116">
        <ele>609</ele>
        <time>2024-11-10T13:23:37Z</time>
      </trkpt>
      <trkpt lat="43.26143" lon="5.85098">
        <ele>604</ele>
        <time>2024-11-10T13:23:47Z</time>
      </trkpt>
      <trkpt lat="43.26309" lon="5.84923">
        <ele>593</ele>
        <time>2024-11-10T13:24:36Z</time>
      </trkpt>
      <trkpt lat="43.26348" lon="5.849">
        <ele>591</ele>
        <time>2024-11-10T13:24:46Z</time>
      </trkpt>
      <trkpt lat="43.2639" lon="5.84909">
        <ele>588</ele>
        <time>2024-11-10T13:24:56Z</time>
      </trkpt>
      <trkpt lat="43.26441" lon="5.8494">
        <ele>581</ele>
        <time>2024-11-10T13:25:09Z</time>
      </trkpt>
      <trkpt lat="43.26478" lon="5.84956">
        <ele>575</ele>
        <time>2024-11-10T13:25:18Z</time>
      </trkpt>
      <trkpt lat="43.2653" lon="5.84951">
        <ele>566</ele>
        <time>2024-11-10T13:25:30Z</time>
      </trkpt>
      <trkpt lat="43.26565" lon="5.84936">
        <ele>557</ele>
        <time>2024-11-10T13:25:38Z</time>
      </trkpt>
      <trkpt lat="43.26598" lon="5.84862">
        <ele>565</ele>
        <time>2024-11-10T13:25:53Z</time>
      </trkpt>
      <trkpt lat="43.26613" lon="5.84842">
        <ele>565</ele>
        <time>2024-11-10T13:25:58Z</time>
      </trkpt>
      <trkpt lat="43.26632" lon="5.84834">
        <ele>560</ele>
        <time>2024-11-10T13:26:03Z</time>
      </trkpt>
      <trkpt lat="43.26673" lon="5.8482">
        <ele>548</ele>
        <time>2024-11-10T13:26:13Z</time>
      </trkpt>
      <trkpt lat="43.26696" lon="5.84799">
        <ele>544</ele>
        <time>2024-11-10T13:26:19Z</time>
      </trkpt>
      <trkpt lat="43.26708" lon="5.84754">
        <ele>547</ele>
        <time>2024-11-10T13:26:27Z</time>
      </trkpt>
      <trkpt lat="43.26717" lon="5.84694">
        <ele>552</ele>
        <time>2024-11-10T13:26:38Z</time>
      </trkpt>
      <trkpt lat="43.26744" lon="5.84666">
        <ele>540</ele>
        <time>2024-11-10T13:26:46Z</time>
      </trkpt>
      <trkpt lat="43.26794" lon="5.84527">
        <ele>550</ele>
        <time>2024-11-10T13:27:12Z</time>
      </trkpt>
      <trkpt lat="43.26801" lon="5.84525">
        <ele>549</ele>
        <time>2024-11-10T13:27:14Z</time>
      </trkpt>
      <trkpt lat="43.26803" lon="5.84524">
        <ele>549</ele>
        <time>2024-11-10T13:27:14Z</time>
      </trkpt>
      <trkpt lat="43.26818" lon="5.84546">
        <ele>541</ele>
        <time>2024-11-10T13:27:19Z</time>
      </trkpt>
      <trkpt lat="43.26827" lon="5.84562">
        <ele>535</ele>
        <time>2024-11-10T13:27:23Z</time>
      </trkpt>
      <trkpt lat="43.26851" lon="5.84587">
        <ele>528</ele>
        <time>2024-11-10T13:27:30Z</time>
      </trkpt>
      <trkpt lat="43.26894" lon="5.84626">
        <ele>522</ele>
        <time>2024-11-10T13:27:42Z</time>
      </trkpt>
      <trkpt lat="43.2691" lon="5.84638">
        <ele>519</ele>
        <time>2024-11-10T13:27:46Z</time>
      </trkpt>
      <trkpt lat="43.2695" lon="5.84649">
        <ele>512</ele>
        <time>2024-11-10T13:27:55Z</time>
      </trkpt>
      <trkpt lat="43.26974" lon="5.84629">
        <ele>514</ele>
        <time>2024-11-10T13:28:02Z</time>
      </trkpt>
      <trkpt lat="43.26986" lon="5.84612">
        <ele>516</ele>
        <time>2024-11-10T13:28:06Z</time>
      </trkpt>
      <trkpt lat="43.27023" lon="5.84611">
        <ele>509</ele>
        <time>2024-11-10T13:28:15Z</time>
      </trkpt>
      <trkpt lat="43.27039" lon="5.84603">
        <ele>506</ele>
        <time>2024-11-10T13:28:19Z</time>
      </trkpt>
      <trkpt lat="43.27049" lon="5.84585">
        <ele>507</ele>
        <time>2024-11-10T13:28:23Z</time>
      </trkpt>
      <trkpt lat="43.27057" lon="5.84561">
        <ele>512</ele>
        <time>2024-11-10T13:28:27Z</time>
      </trkpt>
      <trkpt lat="43.27071" lon="5.84532">
        <ele>516</ele>
        <time>2024-11-10T13:28:33Z</time>
      </trkpt>
      <trkpt lat="43.27093" lon="5.84525">
        <ele>515</ele>
        <time>2024-11-10T13:28:38Z</time>
      </trkpt>
      <trkpt lat="43.27154" lon="5.84559">
        <ele>503</ele>
        <time>2024-11-10T13:28:54Z</time>
      </trkpt>
      <trkpt lat="43.27186" lon="5.84584">
        <ele>499</ele>
        <time>2024-11-10T13:29:02Z</time>
      </trkpt>
      <trkpt lat="43.27205" lon="5.84635">
        <ele>491</ele>
        <time>2024-11-10T13:29:12Z</time>
      </trkpt>
      <trkpt lat="43.27306" lon="5.84692">
        <ele>486</ele>
        <time>2024-11-10T13:29:37Z</time>
      </trkpt>
      <trkpt lat="43.27323" lon="5.84697">
        <ele>486</ele>
        <time>2024-11-10T13:29:41Z</time>
      </trkpt>
      <trkpt lat="43.27339" lon="5.84695">
        <ele>487</ele>
        <time>2024-11-10T13:29:45Z</time>
      </trkpt>
      <trkpt lat="43.27351" lon="5.84702">
        <ele>485</ele>
        <time>2024-11-10T13:29:48Z</time>
      </trkpt>
      <trkpt lat="43.27362" lon="5.84712">
        <ele>483</ele>
        <time>2024-11-10T13:29:51Z</time>
      </trkpt>
      <trkpt lat="43.27381" lon="5.84717">
        <ele>482</ele>
        <time>2024-11-10T13:29:56Z</time>
      </trkpt>
      <trkpt lat="43.27398" lon="5.84716">
        <ele>483</ele>
        <time>2024-11-10T13:30:00Z</time>
      </trkpt>
      <trkpt lat="43.27413" lon="5.84722">
        <ele>482</ele>
        <time>2024-11-10T13:30:04Z</time>
      </trkpt>
      <trkpt lat="43.27429" lon="5.84734">
        <ele>477</ele>
        <time>2024-11-10T13:30:08Z</time>
      </trkpt>
      <trkpt lat="43.27464" lon="5.84735">
        <ele>475</ele>
        <time>2024-11-10T13:30:16Z</time>
      </trkpt>
      <trkpt lat="43.27549" lon="5.84727">
        <ele>470</ele>
        <time>2024-11-10T13:30:36Z</time>
      </trkpt>
      <trkpt lat="43.2764" lon="5.84669">
        <ele>463</ele>
        <time>2024-11-10T13:30:59Z</time>
      </trkpt>
      <trkpt lat="43.2769" lon="5.84631">
        <ele>461</ele>
        <time>2024-11-10T13:31:13Z</time>
      </trkpt>
      <trkpt lat="43.27766" lon="5.84582">
        <ele>451</ele>
        <time>2024-11-10T13:31:32Z</time>
      </trkpt>
      <trkpt lat="43.27913" lon="5.84474">
        <ele>437</ele>
        <time>2024-11-10T13:32:11Z</time>
      </trkpt>
      <trkpt lat="43.27935" lon="5.84454">
        <ele>436</ele>
        <time>2024-11-10T13:32:17Z</time>
      </trkpt>
      <trkpt lat="43.27965" lon="5.84421">
        <ele>435</ele>
        <time>2024-11-10T13:32:26Z</time>
      </trkpt>
      <trkpt lat="43.27974" lon="5.84406">
        <ele>434</ele>
        <time>2024-11-10T13:32:30Z</time>
      </trkpt>
      <trkpt lat="43.27986" lon="5.84364">
        <ele>432</ele>
        <time>2024-11-10T13:32:37Z</time>
      </trkpt>
      <trkpt lat="43.28006" lon="5.84331">
        <ele>429</ele>
        <time>2024-11-10T13:32:45Z</time>
      </trkpt>
      <trkpt lat="43.28029" lon="5.84317">
        <ele>428</ele>
        <time>2024-11-10T13:32:50Z</time>
      </trkpt>
      <trkpt lat="43.28048" lon="5.84318">
        <ele>427</ele>
        <time>2024-11-10T13:32:55Z</time>
      </trkpt>
      <trkpt lat="43.28067" lon="5.84322">
        <ele>426</ele>
        <time>2024-11-10T13:32:59Z</time>
      </trkpt>
      <trkpt lat="43.28149" lon="5.84355">
        <ele>424</ele>
        <time>2024-11-10T13:33:19Z</time>
      </trkpt>
      <trkpt lat="43.28253" lon="5.84364">
        <ele>422</ele>
        <time>2024-11-10T13:33:44Z</time>
      </trkpt>
      <trkpt lat="43.28281" lon="5.84381">
        <ele>421</ele>
        <time>2024-11-10T13:33:51Z</time>
      </trkpt>
      <trkpt lat="43.28421" lon="5.84479">
        <ele>425</ele>
        <time>2024-11-10T13:34:27Z</time>
      </trkpt>
      <trkpt lat="43.2849" lon="5.84529">
        <ele>421</ele>
        <time>2024-11-10T13:34:46Z</time>
      </trkpt>
      <trkpt lat="43.28496" lon="5.8453">
        <ele>420</ele>
        <time>2024-11-10T13:34:47Z</time>
      </trkpt>
      <trkpt lat="43.28502" lon="5.84527">
        <ele>419</ele>
        <time>2024-11-10T13:34:49Z</time>
      </trkpt>
      <trkpt lat="43.28507" lon="5.84521">
        <ele>418</ele>
        <time>2024-11-10T13:34:50Z</time>
      </trkpt>
      <trkpt lat="43.28516" lon="5.84495">
        <ele>414</ele>
        <time>2024-11-10T13:34:55Z</time>
      </trkpt>
      <trkpt lat="43.28522" lon="5.84493">
        <ele>414</ele>
        <time>2024-11-10T13:34:57Z</time>
      </trkpt>
      <trkpt lat="43.28522" lon="5.84528">
        <ele>415</ele>
        <time>2024-11-10T13:35:02Z</time>
      </trkpt>
      <trkpt lat="43.28532" lon="5.84584">
        <ele>415</ele>
        <time>2024-11-10T13:35:12Z</time>
      </trkpt>
      <trkpt lat="43.2855" lon="5.84682">
        <ele>414</ele>
        <time>2024-11-10T13:35:29Z</time>
      </trkpt>
      <trkpt lat="43.2856" lon="5.84712">
        <ele>412</ele>
        <time>2024-11-10T13:35:35Z</time>
      </trkpt>
      <trkpt lat="43.28568" lon="5.84726">
        <ele>411</ele>
        <time>2024-11-10T13:35:38Z</time>
      </trkpt>
      <trkpt lat="43.28586" lon="5.84745">
        <ele>408</ele>
        <time>2024-11-10T13:35:43Z</time>
      </trkpt>
      <trkpt lat="43.28596" lon="5.8475">
        <ele>408</ele>
        <time>2024-11-10T13:35:46Z</time>
      </trkpt>
      <trkpt lat="43.28633" lon="5.84756">
        <ele>408</ele>
        <time>2024-11-10T13:35:55Z</time>
      </trkpt>
      <trkpt lat="43.28659" lon="5.84771">
        <ele>408</ele>
        <time>2024-11-10T13:36:01Z</time>
      </trkpt>
      <trkpt lat="43.28695" lon="5.84799">
        <ele>415</ele>
        <time>2024-11-10T13:36:11Z</time>
      </trkpt>
      <trkpt lat="43.28702" lon="5.84807">
        <ele>416</ele>
        <time>2024-11-10T13:36:13Z</time>
      </trkpt>
      <trkpt lat="43.28708" lon="5.84819">
        <ele>417</ele>
        <time>2024-11-10T13:36:15Z</time>
      </trkpt>
      <trkpt lat="43.28721" lon="5.84876">
        <ele>418</ele>
        <time>2024-11-10T13:36:26Z</time>
      </trkpt>
      <trkpt lat="43.28729" lon="5.84903">
        <ele>418</ele>
        <time>2024-11-10T13:36:31Z</time>
      </trkpt>
      <trkpt lat="43.28736" lon="5.84946">
        <ele>414</ele>
        <time>2024-11-10T13:36:38Z</time>
      </trkpt>
      <trkpt lat="43.28742" lon="5.84962">
        <ele>412</ele>
        <time>2024-11-10T13:36:41Z</time>
      </trkpt>
      <trkpt lat="43.2876" lon="5.84994">
        <ele>410</ele>
        <time>2024-11-10T13:36:48Z</time>
      </trkpt>
      <trkpt lat="43.28769" lon="5.85017">
        <ele>409</ele>
        <time>2024-11-10T13:36:52Z</time>
      </trkpt>
      <trkpt lat="43.28795" lon="5.85099">
        <ele>400</ele>
        <time>2024-11-10T13:37:08Z</time>
      </trkpt>
      <trkpt lat="43.28798" lon="5.85115">
        <ele>398</ele>
        <time>2024-11-10T13:37:10Z</time>
      </trkpt>
      <trkpt lat="43.28798" lon="5.85128">
        <ele>395</ele>
        <time>2024-11-10T13:37:13Z</time>
      </trkpt>
      <trkpt lat="43.28795" lon="5.85234">
        <ele>382</ele>
        <time>2024-11-10T13:37:31Z</time>
      </trkpt>
      <trkpt lat="43.28798" lon="5.85242">
        <ele>382</ele>
        <time>2024-11-10T13:37:32Z</time>
      </trkpt>
      <trkpt lat="43.28806" lon="5.85252">
        <ele>382</ele>
        <time>2024-11-10T13:37:35Z</time>
      </trkpt>
      <trkpt lat="43.28836" lon="5.85265">
        <ele>384</ele>
        <time>2024-11-10T13:37:42Z</time>
      </trkpt>
      <trkpt lat="43.28844" lon="5.85272">
        <ele>387</ele>
        <time>2024-11-10T13:37:44Z</time>
      </trkpt>
      <trkpt lat="43.28849" lon="5.85282">
        <ele>387</ele>
        <time>2024-11-10T13:37:46Z</time>
      </trkpt>
      <trkpt lat="43.28853" lon="5.85294">
        <ele>388</ele>
        <time>2024-11-10T13:37:49Z</time>
      </trkpt>
      <trkpt lat="43.28853" lon="5.85309">
        <ele>387</ele>
        <time>2024-11-10T13:37:51Z</time>
      </trkpt>
      <trkpt lat="43.2885" lon="5.85335">
        <ele>384</ele>
        <time>2024-11-10T13:37:56Z</time>
      </trkpt>
      <trkpt lat="43.28848" lon="5.85357">
        <ele>380</ele>
        <time>2024-11-10T13:37:59Z</time>
      </trkpt>
      <trkpt lat="43.2885" lon="5.85378">
        <ele>379</ele>
        <time>2024-11-10T13:38:03Z</time>
      </trkpt>
      <trkpt lat="43.2886" lon="5.85432">
        <ele>376</ele>
        <time>2024-11-10T13:38:12Z</time>
      </trkpt>
      <trkpt lat="43.28865" lon="5.85448">
        <ele>374</ele>
        <time>2024-11-10T13:38:15Z</time>
      </trkpt>
      <trkpt lat="43.28931" lon="5.85544">
        <ele>373</ele>
        <time>2024-11-10T13:38:38Z</time>
      </trkpt>
      <trkpt lat="43.28956" lon="5.856">
        <ele>370</ele>
        <time>2024-11-10T13:38:49Z</time>
      </trkpt>
      <trkpt lat="43.2898" lon="5.85642">
        <ele>370</ele>
        <time>2024-11-10T13:38:58Z</time>
      </trkpt>
      <trkpt lat="43.28985" lon="5.85655">
        <ele>369</ele>
        <time>2024-11-10T13:39:01Z</time>
      </trkpt>
      <trkpt lat="43.28988" lon="5.8567">
        <ele>367</ele>
        <time>2024-11-10T13:39:03Z</time>
      </trkpt>
      <trkpt lat="43.28987" lon="5.85701">
        <ele>364</ele>
        <time>2024-11-10T13:39:08Z</time>
      </trkpt>
      <trkpt lat="43.28989" lon="5.85746">
        <ele>360</ele>
        <time>2024-11-10T13:39:16Z</time>
      </trkpt>
      <trkpt lat="43.29004" lon="5.85847">
        <ele>354</ele>
        <time>2024-11-10T13:39:34Z</time>
      </trkpt>
      <trkpt lat="43.29022" lon="5.85929">
        <ele>355</ele>
        <time>2024-11-10T13:39:48Z</time>
      </trkpt>
      <trkpt lat="43.29026" lon="5.85958">
        <ele>354</ele>
        <time>2024-11-10T13:39:53Z</time>
      </trkpt>
      <trkpt lat="43.29022" lon="5.85962">
        <ele>352</ele>
        <time>2024-11-10T13:39:54Z</time>
      </trkpt>
      <trkpt lat="43.29021" lon="5.85969">
        <ele>351</ele>
        <time>2024-11-10T13:39:56Z</time>
      </trkpt>
      <trkpt lat="43.29024" lon="5.85974">
        <ele>352</ele>
        <time>2024-11-10T13:39:57Z</time>
      </trkpt>
      <trkpt lat="43.29024" lon="5.85991">
        <ele>350</ele>
        <time>2024-11-10T13:40:00Z</time>
      </trkpt>
      <trkpt lat="43.2902" lon="5.86016">
        <ele>347</ele>
        <time>2024-11-10T13:40:04Z</time>
      </trkpt>
      <trkpt lat="43.29019" lon="5.86072">
        <ele>344</ele>
        <time>2024-11-10T13:40:13Z</time>
      </trkpt>
      <trkpt lat="43.29017" lon="5.86139">
        <ele>343</ele>
        <time>2024-11-10T13:40:25Z</time>
      </trkpt>
      <trkpt lat="43.29016" lon="5.86205">
        <ele>342</ele>
        <time>2024-11-10T13:40:36Z</time>
      </trkpt>
      <trkpt lat="43.29023" lon="5.86301">
        <ele>344</ele>
        <time>2024-11-10T13:40:53Z</time>
      </trkpt>
      <trkpt lat="43.2903" lon="5.86361">
        <ele>345</ele>
        <time>2024-11-10T13:41:03Z</time>
      </trkpt>
      <trkpt lat="43.29037" lon="5.8636">
        <ele>346</ele>
        <time>2024-11-10T13:41:04Z</time>
      </trkpt>
      <trkpt lat="43.29079" lon="5.86377">
        <ele>349</ele>
        <time>2024-11-10T13:41:15Z</time>
      </trkpt>
      <trkpt lat="43.29096" lon="5.86343">
        <ele>350</ele>
        <time>2024-11-10T13:41:22Z</time>
      </trkpt>
      <trkpt lat="43.29104" lon="5.8633">
        <ele>352</ele>
        <time>2024-11-10T13:41:25Z</time>
      </trkpt>
      <trkpt lat="43.29114" lon="5.86342">
        <ele>352</ele>
        <time>2024-11-10T13:41:28Z</time>
      </trkpt>
      <trkpt lat="43.29122" lon="5.86355">
        <ele>353</ele>
        <time>2024-11-10T13:41:31Z</time>
      </trkpt>
      <trkpt lat="43.29121" lon="5.86369">
        <ele>353</ele>
        <time>2024-11-10T13:41:33Z</time>
      </trkpt>
      <trkpt lat="43.29163" lon="5.86412">
        <ele>354</ele>
        <time>2024-11-10T13:41:45Z</time>
      </trkpt>
      <trkpt lat="43.29186" lon="5.86423">
        <ele>355</ele>
        <time>2024-11-10T13:41:51Z</time>
      </trkpt>
      <trkpt lat="43.29194" lon="5.86424">
        <ele>356</ele>
        <time>2024-11-10T13:41:53Z</time>
      </trkpt>
      <trkpt lat="43.29198" lon="5.8642">
        <ele>356</ele>
        <time>2024-11-10T13:41:54Z</time>
      </trkpt>
      <trkpt lat="43.29211" lon="5.86421">
        <ele>357</ele>
        <time>2024-11-10T13:41:57Z</time>
      </trkpt>
      <trkpt lat="43.29215" lon="5.8642">
        <ele>357</ele>
        <time>2024-11-10T13:41:58Z</time>
      </trkpt>
      <trkpt lat="43.29229" lon="5.86397">
        <ele>358</ele>
        <time>2024-11-10T13:42:03Z</time>
      </trkpt>
      <trkpt lat="43.29238" lon="5.86375">
        <ele>359</ele>
        <time>2024-11-10T13:42:07Z</time>
      </trkpt>
      <trkpt lat="43.29241" lon="5.86345">
        <ele>360</ele>
        <time>2024-11-10T13:42:12Z</time>
      </trkpt>
      <trkpt lat="43.29238" lon="5.86375">
        <ele>359</ele>
        <time>2024-11-10T13:42:18Z</time>
      </trkpt>
      <trkpt lat="43.29229" lon="5.86397">
        <ele>358</ele>
        <time>2024-11-10T13:42:22Z</time>
      </trkpt>
      <trkpt lat="43.29215" lon="5.8642">
        <ele>357</ele>
        <time>2024-11-10T13:42:27Z</time>
      </trkpt>
      <trkpt lat="43.29211" lon="5.86421">
        <ele>357</ele>
        <time>2024-11-10T13:42:28Z</time>
      </trkpt>
      <trkpt lat="43.29198" lon="5.8642">
        <ele>356</ele>
        <time>2024-11-10T13:42:31Z</time>
      </trkpt>
      <trkpt lat="43.29194" lon="5.86424">
        <ele>356</ele>
        <time>2024-11-10T13:42:32Z</time>
      </trkpt>
      <trkpt lat="43.2919" lon="5.8647">
        <ele>356</ele>
        <time>2024-11-10T13:42:40Z</time>
      </trkpt>
      <trkpt lat="43.29216" lon="5.86493">
        <ele>361</ele>
        <time>2024-11-10T13:42:47Z</time>
      </trkpt>
      <trkpt lat="43.29213" lon="5.86528">
        <ele>361</ele>
        <time>2024-11-10T13:42:53Z</time>
      </trkpt>
      <trkpt lat="43.29204" lon="5.86592">
        <ele>361</ele>
        <time>2024-11-10T13:43:04Z</time>
      </trkpt>
      <trkpt lat="43.292" lon="5.86599">
        <ele>360</ele>
        <time>2024-11-10T13:43:06Z</time>
      </trkpt>
      <trkpt lat="43.29197" lon="5.86614">
        <ele>359</ele>
        <time>2024-11-10T13:43:08Z</time>
      </trkpt>
      <trkpt lat="43.29187" lon="5.86612">
        <ele>357</ele>
        <time>2024-11-10T13:43:11Z</time>
      </trkpt>
      <trkpt lat="43.29178" lon="5.86684">
        <ele>354</ele>
        <time>2024-11-10T13:43:23Z</time>
      </trkpt>
      <trkpt lat="43.29171" lon="5.86699">
        <ele>352</ele>
        <time>2024-11-10T13:43:26Z</time>
      </trkpt>
      <trkpt lat="43.29138" lon="5.86794">
        <ele>349</ele>
        <time>2024-11-10T13:43:44Z</time>
      </trkpt>
      <trkpt lat="43.29112" lon="5.86844">
        <ele>347</ele>
        <time>2024-11-10T13:43:55Z</time>
      </trkpt>
      <trkpt lat="43.29041" lon="5.8682">
        <ele>342</ele>
        <time>2024-11-10T13:44:12Z</time>
      </trkpt>
      <trkpt lat="43.29019" lon="5.86975">
        <ele>336</ele>
        <time>2024-11-10T13:44:39Z</time>
      </trkpt>
      <trkpt lat="43.29011" lon="5.87002">
        <ele>335</ele>
        <time>2024-11-10T13:44:43Z</time>
      </trkpt>
      <trkpt lat="43.29001" lon="5.87024">
        <ele>333</ele>
        <time>2024-11-10T13:44:48Z</time>
      </trkpt>
      <trkpt lat="43.28986" lon="5.87052">
        <ele>332</ele>
        <time>2024-11-10T13:44:54Z</time>
      </trkpt>
      <trkpt lat="43.28961" lon="5.87086">
        <ele>330</ele>
        <time>2024-11-10T13:45:02Z</time>
      </trkpt>
      <trkpt lat="43.2895" lon="5.87096">
        <ele>330</ele>
        <time>2024-11-10T13:45:05Z</time>
      </trkpt>
      <trkpt lat="43.28941" lon="5.87097">
        <ele>329</ele>
        <time>2024-11-10T13:45:07Z</time>
      </trkpt>
      <trkpt lat="43.28935" lon="5.87106">
        <ele>329</ele>
        <time>2024-11-10T13:45:09Z</time>
      </trkpt>
      <trkpt lat="43.28935" lon="5.87119">
        <ele>329</ele>
        <time>2024-11-10T13:45:11Z</time>
      </trkpt>
      <trkpt lat="43.28937" lon="5.87125">
        <ele>329</ele>
        <time>2024-11-10T13:45:13Z</time>
      </trkpt>
      <trkpt lat="43.2894" lon="5.87145">
        <ele>329</ele>
        <time>2024-11-10T13:45:16Z</time>
      </trkpt>
      <trkpt lat="43.2894" lon="5.87152">
        <ele>329</ele>
        <time>2024-11-10T13:45:17Z</time>
      </trkpt>
      <trkpt lat="43.28923" lon="5.87233">
        <ele>328</ele>
        <time>2024-11-10T13:45:32Z</time>
      </trkpt>
      <trkpt lat="43.28919" lon="5.87259">
        <ele>328</ele>
        <time>2024-11-10T13:45:36Z</time>
      </trkpt>
      <trkpt lat="43.28864" lon="5.87531">
        <ele>321</ele>
        <time>2024-11-10T13:46:24Z</time>
      </trkpt>
      <trkpt lat="43.28844" lon="5.87678">
        <ele>319</ele>
        <time>2024-11-10T13:46:50Z</time>
      </trkpt>
      <trkpt lat="43.28818" lon="5.87852">
        <ele>319</ele>
        <time>2024-11-10T13:47:20Z</time>
      </trkpt>
      <trkpt lat="43.28772" lon="5.88104">
        <ele>318</ele>
        <time>2024-11-10T13:48:04Z</time>
      </trkpt>
      <trkpt lat="43.28726" lon="5.88399">
        <ele>318</ele>
        <time>2024-11-10T13:48:55Z</time>
      </trkpt>
      <trkpt lat="43.28719" lon="5.88451">
        <ele>318</ele>
        <time>2024-11-10T13:49:04Z</time>
      </trkpt>
      <trkpt lat="43.28719" lon="5.88501">
        <ele>318</ele>
        <time>2024-11-10T13:49:13Z</time>
      </trkpt>
      <trkpt lat="43.28733" lon="5.88661">
        <ele>317</ele>
        <time>2024-11-10T13:49:40Z</time>
      </trkpt>
      <trkpt lat="43.28737" lon="5.88786">
        <ele>316</ele>
        <time>2024-11-10T13:50:01Z</time>
      </trkpt>
      <trkpt lat="43.28735" lon="5.88814">
        <ele>316</ele>
        <time>2024-11-10T13:50:06Z</time>
      </trkpt>
      <trkpt lat="43.28732" lon="5.88834">
        <ele>316</ele>
        <time>2024-11-10T13:50:10Z</time>
      </trkpt>
      <trkpt lat="43.287" lon="5.88981">
        <ele>319</ele>
        <time>2024-11-10T13:50:36Z</time>
      </trkpt>
      <trkpt lat="43.28684" lon="5.8905">
        <ele>322</ele>
        <time>2024-11-10T13:50:48Z</time>
      </trkpt>
      <trkpt lat="43.28678" lon="5.89069">
        <ele>323</ele>
        <time>2024-11-10T13:50:52Z</time>
      </trkpt>
      <trkpt lat="43.28667" lon="5.891">
        <ele>323</ele>
        <time>2024-11-10T13:50:57Z</time>
      </trkpt>
      <trkpt lat="43.28656" lon="5.89121">
        <ele>322</ele>
        <time>2024-11-10T13:51:02Z</time>
      </trkpt>
      <trkpt lat="43.28643" lon="5.89139">
        <ele>322</ele>
        <time>2024-11-10T13:51:06Z</time>
      </trkpt>
      <trkpt lat="43.28581" lon="5.8921">
        <ele>321</ele>
        <time>2024-11-10T13:51:25Z</time>
      </trkpt>
      <trkpt lat="43.28559" lon="5.8924">
        <ele>320</ele>
        <time>2024-11-10T13:51:32Z</time>
      </trkpt>
      <trkpt lat="43.28551" lon="5.89253">
        <ele>320</ele>
        <time>2024-11-10T13:51:35Z</time>
      </trkpt>
      <trkpt lat="43.28546" lon="5.89268">
        <ele>320</ele>
        <time>2024-11-10T13:51:38Z</time>
      </trkpt>
      <trkpt lat="43.28534" lon="5.89311">
        <ele>321</ele>
        <time>2024-11-10T13:51:46Z</time>
      </trkpt>
      <trkpt lat="43.28525" lon="5.89338">
        <ele>322</ele>
        <time>2024-11-10T13:51:51Z</time>
      </trkpt>
      <trkpt lat="43.28512" lon="5.8936">
        <ele>323</ele>
        <time>2024-11-10T13:51:56Z</time>
      </trkpt>
      <trkpt lat="43.28484" lon="5.89396">
        <ele>324</ele>
        <time>2024-11-10T13:52:05Z</time>
      </trkpt>
      <trkpt lat="43.28423" lon="5.89467">
        <ele>322</ele>
        <time>2024-11-10T13:52:23Z</time>
      </trkpt>
      <trkpt lat="43.28398" lon="5.89506">
        <ele>321</ele>
        <time>2024-11-10T13:52:32Z</time>
      </trkpt>
      <trkpt lat="43.28387" lon="5.89529">
        <ele>320</ele>
        <time>2024-11-10T13:52:37Z</time>
      </trkpt>
      <trkpt lat="43.2838" lon="5.89552">
        <ele>320</ele>
        <time>2024-11-10T13:52:41Z</time>
      </trkpt>
      <trkpt lat="43.28342" lon="5.89691">
        <ele>322</ele>
        <time>2024-11-10T13:53:06Z</time>
      </trkpt>
      <trkpt lat="43.28309" lon="5.89778">
        <ele>326</ele>
        <time>2024-11-10T13:53:23Z</time>
      </trkpt>
      <trkpt lat="43.28297" lon="5.89839">
        <ele>326</ele>
        <time>2024-11-10T13:53:34Z</time>
      </trkpt>
      <trkpt lat="43.28291" lon="5.89856">
        <ele>325</ele>
        <time>2024-11-10T13:53:37Z</time>
      </trkpt>
      <trkpt lat="43.28279" lon="5.89874">
        <ele>323</ele>
        <time>2024-11-10T13:53:41Z</time>
      </trkpt>
      <trkpt lat="43.28197" lon="5.89987">
        <ele>326</ele>
        <time>2024-11-10T13:54:08Z</time>
      </trkpt>
      <trkpt lat="43.28188" lon="5.90005">
        <ele>326</ele>
        <time>2024-11-10T13:54:12Z</time>
      </trkpt>
      <trkpt lat="43.28181" lon="5.90021">
        <ele>326</ele>
        <time>2024-11-10T13:54:15Z</time>
      </trkpt>
      <trkpt lat="43.28163" lon="5.90081">
        <ele>328</ele>
        <time>2024-11-10T13:54:26Z</time>
      </trkpt>
      <trkpt lat="43.28154" lon="5.90099">
        <ele>328</ele>
        <time>2024-11-10T13:54:30Z</time>
      </trkpt>
      <trkpt lat="43.28116" lon="5.90155">
        <ele>324</ele>
        <time>2024-11-10T13:54:43Z</time>
      </trkpt>
      <trkpt lat="43.28108" lon="5.90162">
        <ele>323</ele>
        <time>2024-11-10T13:54:45Z</time>
      </trkpt>
      <trkpt lat="43.28098" lon="5.90177">
        <ele>321</ele>
        <time>2024-11-10T13:54:48Z</time>
      </trkpt>
      <trkpt lat="43.2808" lon="5.90214">
        <ele>319</ele>
        <time>2024-11-10T13:54:56Z</time>
      </trkpt>
      <trkpt lat="43.2807" lon="5.90257">
        <ele>320</ele>
        <time>2024-11-10T13:55:04Z</time>
      </trkpt>
      <trkpt lat="43.28062" lon="5.90301">
        <ele>322</ele>
        <time>2024-11-10T13:55:11Z</time>
      </trkpt>
      <trkpt lat="43.28016" lon="5.90445">
        <ele>322</ele>
        <time>2024-11-10T13:55:38Z</time>
      </trkpt>
      <trkpt lat="43.28009" lon="5.90474">
        <ele>322</ele>
        <time>2024-11-10T13:55:43Z</time>
      </trkpt>
      <trkpt lat="43.27999" lon="5.90576">
        <ele>325</ele>
        <time>2024-11-10T13:56:01Z</time>
      </trkpt>
      <trkpt lat="43.27973" lon="5.90687">
        <ele>330</ele>
        <time>2024-11-10T13:56:21Z</time>
      </trkpt>
      <trkpt lat="43.27964" lon="5.90755">
        <ele>328</ele>
        <time>2024-11-10T13:56:32Z</time>
      </trkpt>
      <trkpt lat="43.27958" lon="5.90784">
        <ele>327</ele>
        <time>2024-11-10T13:56:37Z</time>
      </trkpt>
      <trkpt lat="43.27942" lon="5.90841">
        <ele>325</ele>
        <time>2024-11-10T13:56:48Z</time>
      </trkpt>
      <trkpt lat="43.27924" lon="5.90878">
        <ele>326</ele>
        <time>2024-11-10T13:56:55Z</time>
      </trkpt>
      <trkpt lat="43.27916" lon="5.90873">
        <ele>325</ele>
        <time>2024-11-10T13:56:57Z</time>
      </trkpt>
      <trkpt lat="43.27907" lon="5.90871">
        <ele>324</ele>
        <time>2024-11-10T13:57:00Z</time>
      </trkpt>
      <trkpt lat="43.27902" lon="5.90865">
        <ele>323</ele>
        <time>2024-11-10T13:57:01Z</time>
      </trkpt>
      <trkpt lat="43.2789" lon="5.90861">
        <ele>322</ele>
        <time>2024-11-10T13:57:04Z</time>
      </trkpt>
      <trkpt lat="43.27883" lon="5.90864">
        <ele>322</ele>
        <time>2024-11-10T13:57:06Z</time>
      </trkpt>
      <trkpt lat="43.27876" lon="5.90871">
        <ele>322</ele>
        <time>2024-11-10T13:57:08Z</time>
      </trkpt>
      <trkpt lat="43.27872" lon="5.9088">
        <ele>322</ele>
        <time>2024-11-10T13:57:10Z</time>
      </trkpt>
      <trkpt lat="43.27865" lon="5.90945">
        <ele>326</ele>
        <time>2024-11-10T13:57:21Z</time>
      </trkpt>
      <trkpt lat="43.27861" lon="5.90959">
        <ele>326</ele>
        <time>2024-11-10T13:57:23Z</time>
      </trkpt>
      <trkpt lat="43.27839" lon="5.91009">
        <ele>323</ele>
        <time>2024-11-10T13:57:33Z</time>
      </trkpt>
      <trkpt lat="43.27821" lon="5.91037">
        <ele>322</ele>
        <time>2024-11-10T13:57:40Z</time>
      </trkpt>
      <trkpt lat="43.27811" lon="5.91049">
        <ele>321</ele>
        <time>2024-11-10T13:57:43Z</time>
      </trkpt>
      <trkpt lat="43.278" lon="5.91057">
        <ele>321</ele>
        <time>2024-11-10T13:57:46Z</time>
      </trkpt>
      <trkpt lat="43.27766" lon="5.91068">
        <ele>319</ele>
        <time>2024-11-10T13:57:54Z</time>
      </trkpt>
      <trkpt lat="43.27756" lon="5.91077">
        <ele>319</ele>
        <time>2024-11-10T13:57:57Z</time>
      </trkpt>
      <trkpt lat="43.27746" lon="5.91089">
        <ele>320</ele>
        <time>2024-11-10T13:58:00Z</time>
      </trkpt>
      <trkpt lat="43.27716" lon="5.91147">
        <ele>324</ele>
        <time>2024-11-10T13:58:12Z</time>
      </trkpt>
      <trkpt lat="43.27645" lon="5.91315">
        <ele>319</ele>
        <time>2024-11-10T13:58:45Z</time>
      </trkpt>
      <trkpt lat="43.27624" lon="5.91358">
        <ele>318</ele>
        <time>2024-11-10T13:58:54Z</time>
      </trkpt>
      <trkpt lat="43.27611" lon="5.91375">
        <ele>316</ele>
        <time>2024-11-10T13:58:58Z</time>
      </trkpt>
      <trkpt lat="43.2747" lon="5.9152">
        <ele>313</ele>
        <time>2024-11-10T13:59:39Z</time>
      </trkpt>
      <trkpt lat="43.27454" lon="5.91538">
        <ele>313</ele>
        <time>2024-11-10T13:59:44Z</time>
      </trkpt>
      <trkpt lat="43.27444" lon="5.91554">
        <ele>314</ele>
        <time>2024-11-10T13:59:47Z</time>
      </trkpt>
      <trkpt lat="43.27436" lon="5.91572">
        <ele>314</ele>
        <time>2024-11-10T13:59:51Z</time>
      </trkpt>
      <trkpt lat="43.27422" lon="5.91608">
        <ele>314</ele>
        <time>2024-11-10T13:59:58Z</time>
      </trkpt>
      <trkpt lat="43.27417" lon="5.91627">
        <ele>314</ele>
        <time>2024-11-10T14:00:01Z</time>
      </trkpt>
      <trkpt lat="43.27412" lon="5.91669">
        <ele>316</ele>
        <time>2024-11-10T14:00:09Z</time>
      </trkpt>
      <trkpt lat="43.27411" lon="5.91709">
        <ele>315</ele>
        <time>2024-11-10T14:00:15Z</time>
      </trkpt>
      <trkpt lat="43.27415" lon="5.91746">
        <ele>314</ele>
        <time>2024-11-10T14:00:22Z</time>
      </trkpt>
      <trkpt lat="43.2742" lon="5.91762">
        <ele>314</ele>
        <time>2024-11-10T14:00:25Z</time>
      </trkpt>
      <trkpt lat="43.27454" lon="5.91824">
        <ele>317</ele>
        <time>2024-11-10T14:00:38Z</time>
      </trkpt>
      <trkpt lat="43.27467" lon="5.9186">
        <ele>318</ele>
        <time>2024-11-10T14:00:45Z</time>
      </trkpt>
      <trkpt lat="43.27472" lon="5.91879">
        <ele>318</ele>
        <time>2024-11-10T14:00:48Z</time>
      </trkpt>
      <trkpt lat="43.27473" lon="5.91896">
        <ele>318</ele>
        <time>2024-11-10T14:00:51Z</time>
      </trkpt>
      <trkpt lat="43.2747" lon="5.91913">
        <ele>317</ele>
        <time>2024-11-10T14:00:54Z</time>
      </trkpt>
      <trkpt lat="43.27443" lon="5.91971">
        <ele>313</ele>
        <time>2024-11-10T14:01:06Z</time>
      </trkpt>
      <trkpt lat="43.2744" lon="5.91986">
        <ele>313</ele>
        <time>2024-11-10T14:01:08Z</time>
      </trkpt>
      <trkpt lat="43.27441" lon="5.92">
        <ele>312</ele>
        <time>2024-11-10T14:01:11Z</time>
      </trkpt>
      <trkpt lat="43.27446" lon="5.92014">
        <ele>313</ele>
        <time>2024-11-10T14:01:13Z</time>
      </trkpt>
      <trkpt lat="43.27464" lon="5.92045">
        <ele>313</ele>
        <time>2024-11-10T14:01:20Z</time>
      </trkpt>
      <trkpt lat="43.2748" lon="5.92083">
        <ele>312</ele>
        <time>2024-11-10T14:01:28Z</time>
      </trkpt>
      <trkpt lat="43.27491" lon="5.92142">
        <ele>309</ele>
        <time>2024-11-10T14:01:38Z</time>
      </trkpt>
      <trkpt lat="43.27491" lon="5.92186">
        <ele>306</ele>
        <time>2024-11-10T14:01:45Z</time>
      </trkpt>
      <trkpt lat="43.27497" lon="5.92199">
        <ele>305</ele>
        <time>2024-11-10T14:01:48Z</time>
      </trkpt>
      <trkpt lat="43.27505" lon="5.92208">
        <ele>306</ele>
        <time>2024-11-10T14:01:50Z</time>
      </trkpt>
      <trkpt lat="43.27551" lon="5.92235">
        <ele>312</ele>
        <time>2024-11-10T14:02:02Z</time>
      </trkpt>
      <trkpt lat="43.27561" lon="5.92248">
        <ele>312</ele>
        <time>2024-11-10T14:02:05Z</time>
      </trkpt>
      <trkpt lat="43.27568" lon="5.92263">
        <ele>312</ele>
        <time>2024-11-10T14:02:08Z</time>
      </trkpt>
      <trkpt lat="43.27572" lon="5.92279">
        <ele>313</ele>
        <time>2024-11-10T14:02:11Z</time>
      </trkpt>
      <trkpt lat="43.27575" lon="5.92318">
        <ele>312</ele>
        <time>2024-11-10T14:02:18Z</time>
      </trkpt>
      <trkpt lat="43.27575" lon="5.92344">
        <ele>312</ele>
        <time>2024-11-10T14:02:22Z</time>
      </trkpt>
      <trkpt lat="43.27569" lon="5.92413">
        <ele>313</ele>
        <time>2024-11-10T14:02:34Z</time>
      </trkpt>
      <trkpt lat="43.27537" lon="5.92483">
        <ele>309</ele>
        <time>2024-11-10T14:02:48Z</time>
      </trkpt>
      <trkpt lat="43.27534" lon="5.92502">
        <ele>308</ele>
        <time>2024-11-10T14:02:52Z</time>
      </trkpt>
      <trkpt lat="43.27541" lon="5.92589">
        <ele>307</ele>
        <time>2024-11-10T14:03:06Z</time>
      </trkpt>
      <trkpt lat="43.27543" lon="5.92637">
        <ele>305</ele>
        <time>2024-11-10T14:03:15Z</time>
      </trkpt>
      <trkpt lat="43.27543" lon="5.92659">
        <ele>304</ele>
        <time>2024-11-10T14:03:18Z</time>
      </trkpt>
      <trkpt lat="43.27536" lon="5.92718">
        <ele>304</ele>
        <time>2024-11-10T14:03:28Z</time>
      </trkpt>
      <trkpt lat="43.27535" lon="5.92737">
        <ele>304</ele>
        <time>2024-11-10T14:03:32Z</time>
      </trkpt>
      <trkpt lat="43.27537" lon="5.92755">
        <ele>304</ele>
        <time>2024-11-10T14:03:35Z</time>
      </trkpt>
      <trkpt lat="43.27563" lon="5.92838">
        <ele>305</ele>
        <time>2024-11-10T14:03:50Z</time>
      </trkpt>
      <trkpt lat="43.27568" lon="5.92859">
        <ele>304</ele>
        <time>2024-11-10T14:03:54Z</time>
      </trkpt>
      <trkpt lat="43.2757" lon="5.9288">
        <ele>303</ele>
        <time>2024-11-10T14:03:58Z</time>
      </trkpt>
      <trkpt lat="43.2757" lon="5.92901">
        <ele>303</ele>
        <time>2024-11-10T14:04:01Z</time>
      </trkpt>
      <trkpt lat="43.27566" lon="5.92944">
        <ele>302</ele>
        <time>2024-11-10T14:04:08Z</time>
      </trkpt>
      <trkpt lat="43.27549" lon="5.9301">
        <ele>301</ele>
        <time>2024-11-10T14:04:20Z</time>
      </trkpt>
      <trkpt lat="43.27496" lon="5.93147">
        <ele>295</ele>
        <time>2024-11-10T14:04:47Z</time>
      </trkpt>
      <trkpt lat="43.27466" lon="5.93237">
        <ele>300</ele>
        <time>2024-11-10T14:05:04Z</time>
      </trkpt>
      <trkpt lat="43.2743" lon="5.93322">
        <ele>297</ele>
        <time>2024-11-10T14:05:20Z</time>
      </trkpt>
      <trkpt lat="43.27389" lon="5.934">
        <ele>299</ele>
        <time>2024-11-10T14:05:37Z</time>
      </trkpt>
      <trkpt lat="43.2738" lon="5.9342">
        <ele>299</ele>
        <time>2024-11-10T14:05:41Z</time>
      </trkpt>
      <trkpt lat="43.27373" lon="5.93441">
        <ele>299</ele>
        <time>2024-11-10T14:05:45Z</time>
      </trkpt>
      <trkpt lat="43.27352" lon="5.93529">
        <ele>296</ele>
        <time>2024-11-10T14:06:00Z</time>
      </trkpt>
      <trkpt lat="43.27345" lon="5.9355">
        <ele>294</ele>
        <time>2024-11-10T14:06:04Z</time>
      </trkpt>
      <trkpt lat="43.27312" lon="5.93626">
        <ele>294</ele>
        <time>2024-11-10T14:06:19Z</time>
      </trkpt>
      <trkpt lat="43.273" lon="5.93667">
        <ele>296</ele>
        <time>2024-11-10T14:06:27Z</time>
      </trkpt>
      <trkpt lat="43.2729" lon="5.93712">
        <ele>300</ele>
        <time>2024-11-10T14:06:35Z</time>
      </trkpt>
      <trkpt lat="43.27282" lon="5.9376">
        <ele>304</ele>
        <time>2024-11-10T14:06:43Z</time>
      </trkpt>
      <trkpt lat="43.27266" lon="5.93887">
        <ele>303</ele>
        <time>2024-11-10T14:07:05Z</time>
      </trkpt>
      <trkpt lat="43.27258" lon="5.93937">
        <ele>298</ele>
        <time>2024-11-10T14:07:14Z</time>
      </trkpt>
      <trkpt lat="43.2723" lon="5.94068">
        <ele>295</ele>
        <time>2024-11-10T14:07:37Z</time>
      </trkpt>
      <trkpt lat="43.27228" lon="5.94086">
        <ele>294</ele>
        <time>2024-11-10T14:07:40Z</time>
      </trkpt>
      <trkpt lat="43.27228" lon="5.94102">
        <ele>293</ele>
        <time>2024-11-10T14:07:43Z</time>
      </trkpt>
      <trkpt lat="43.27231" lon="5.94117">
        <ele>291</ele>
        <time>2024-11-10T14:07:45Z</time>
      </trkpt>
      <trkpt lat="43.27236" lon="5.94132">
        <ele>290</ele>
        <time>2024-11-10T14:07:48Z</time>
      </trkpt>
      <trkpt lat="43.27257" lon="5.94175">
        <ele>294</ele>
        <time>2024-11-10T14:07:57Z</time>
      </trkpt>
      <trkpt lat="43.27264" lon="5.94194">
        <ele>301</ele>
        <time>2024-11-10T14:08:01Z</time>
      </trkpt>
      <trkpt lat="43.27263" lon="5.94209">
        <ele>303</ele>
        <time>2024-11-10T14:08:03Z</time>
      </trkpt>
      <trkpt lat="43.27254" lon="5.94233">
        <ele>301</ele>
        <time>2024-11-10T14:08:08Z</time>
      </trkpt>
      <trkpt lat="43.27245" lon="5.94243">
        <ele>300</ele>
        <time>2024-11-10T14:08:11Z</time>
      </trkpt>
      <trkpt lat="43.27235" lon="5.94253">
        <ele>301</ele>
        <time>2024-11-10T14:08:13Z</time>
      </trkpt>
      <trkpt lat="43.27223" lon="5.9426">
        <ele>304</ele>
        <time>2024-11-10T14:08:16Z</time>
      </trkpt>
      <trkpt lat="43.2721" lon="5.94263">
        <ele>304</ele>
        <time>2024-11-10T14:08:20Z</time>
      </trkpt>
      <trkpt lat="43.27196" lon="5.94262">
        <ele>301</ele>
        <time>2024-11-10T14:08:23Z</time>
      </trkpt>
      <trkpt lat="43.27183" lon="5.94258">
        <ele>297</ele>
        <time>2024-11-10T14:08:26Z</time>
      </trkpt>
      <trkpt lat="43.27171" lon="5.94251">
        <ele>290</ele>
        <time>2024-11-10T14:08:29Z</time>
      </trkpt>
      <trkpt lat="43.2716" lon="5.94241">
        <ele>289</ele>
        <time>2024-11-10T14:08:32Z</time>
      </trkpt>
      <trkpt lat="43.27144" lon="5.94213">
        <ele>286</ele>
        <time>2024-11-10T14:08:38Z</time>
      </trkpt>
      <trkpt lat="43.27134" lon="5.94202">
        <ele>285</ele>
        <time>2024-11-10T14:08:41Z</time>
      </trkpt>
      <trkpt lat="43.27123" lon="5.94195">
        <ele>284</ele>
        <time>2024-11-10T14:08:44Z</time>
      </trkpt>
      <trkpt lat="43.2711" lon="5.94191">
        <ele>283</ele>
        <time>2024-11-10T14:08:47Z</time>
      </trkpt>
      <trkpt lat="43.27035" lon="5.94185">
        <ele>279</ele>
        <time>2024-11-10T14:09:05Z</time>
      </trkpt>
      <trkpt lat="43.2702" lon="5.94185">
        <ele>278</ele>
        <time>2024-11-10T14:09:08Z</time>
      </trkpt>
      <trkpt lat="43.27007" lon="5.94189">
        <ele>277</ele>
        <time>2024-11-10T14:09:11Z</time>
      </trkpt>
      <trkpt lat="43.26996" lon="5.94199">
        <ele>278</ele>
        <time>2024-11-10T14:09:14Z</time>
      </trkpt>
      <trkpt lat="43.26952" lon="5.94262">
        <ele>279</ele>
        <time>2024-11-10T14:09:29Z</time>
      </trkpt>
      <trkpt lat="43.26896" lon="5.94326">
        <ele>279</ele>
        <time>2024-11-10T14:09:46Z</time>
      </trkpt>
      <trkpt lat="43.26879" lon="5.94349">
        <ele>279</ele>
        <time>2024-11-10T14:09:52Z</time>
      </trkpt>
      <trkpt lat="43.26832" lon="5.9441">
        <ele>268</ele>
        <time>2024-11-10T14:10:07Z</time>
      </trkpt>
      <trkpt lat="43.26827" lon="5.94432">
        <ele>270</ele>
        <time>2024-11-10T14:10:11Z</time>
      </trkpt>
      <trkpt lat="43.26815" lon="5.94464">
        <ele>272</ele>
        <time>2024-11-10T14:10:17Z</time>
      </trkpt>
      <trkpt lat="43.26796" lon="5.94539">
        <ele>276</ele>
        <time>2024-11-10T14:10:30Z</time>
      </trkpt>
      <trkpt lat="43.2679" lon="5.94558">
        <ele>276</ele>
        <time>2024-11-10T14:10:34Z</time>
      </trkpt>
      <trkpt lat="43.26782" lon="5.94572">
        <ele>275</ele>
        <time>2024-11-10T14:10:37Z</time>
      </trkpt>
      <trkpt lat="43.2677" lon="5.94584">
        <ele>273</ele>
        <time>2024-11-10T14:10:40Z</time>
      </trkpt>
      <trkpt lat="43.26682" lon="5.94631">
        <ele>268</ele>
        <time>2024-11-10T14:11:02Z</time>
      </trkpt>
      <trkpt lat="43.26655" lon="5.94649">
        <ele>267</ele>
        <time>2024-11-10T14:11:09Z</time>
      </trkpt>
      <trkpt lat="43.2664" lon="5.94661">
        <ele>266</ele>
        <time>2024-11-10T14:11:14Z</time>
      </trkpt>
      <trkpt lat="43.26619" lon="5.94683">
        <ele>266</ele>
        <time>2024-11-10T14:11:20Z</time>
      </trkpt>
      <trkpt lat="43.26607" lon="5.94689">
        <ele>265</ele>
        <time>2024-11-10T14:11:23Z</time>
      </trkpt>
      <trkpt lat="43.26587" lon="5.94691">
        <ele>261</ele>
        <time>2024-11-10T14:11:27Z</time>
      </trkpt>
      <trkpt lat="43.26577" lon="5.94695">
        <ele>261</ele>
        <time>2024-11-10T14:11:30Z</time>
      </trkpt>
      <trkpt lat="43.2657" lon="5.94701">
        <ele>262</ele>
        <time>2024-11-10T14:11:32Z</time>
      </trkpt>
      <trkpt lat="43.26567" lon="5.94709">
        <ele>263</ele>
        <time>2024-11-10T14:11:33Z</time>
      </trkpt>
      <trkpt lat="43.26559" lon="5.94725">
        <ele>265</ele>
        <time>2024-11-10T14:11:37Z</time>
      </trkpt>
      <trkpt lat="43.26541" lon="5.94778">
        <ele>271</ele>
        <time>2024-11-10T14:11:46Z</time>
      </trkpt>
      <trkpt lat="43.26532" lon="5.94795">
        <ele>271</ele>
        <time>2024-11-10T14:11:50Z</time>
      </trkpt>
      <trkpt lat="43.26476" lon="5.94882">
        <ele>270</ele>
        <time>2024-11-10T14:12:10Z</time>
      </trkpt>
      <trkpt lat="43.26439" lon="5.94931">
        <ele>265</ele>
        <time>2024-11-10T14:12:22Z</time>
      </trkpt>
      <trkpt lat="43.2643" lon="5.94944">
        <ele>263</ele>
        <time>2024-11-10T14:12:25Z</time>
      </trkpt>
      <trkpt lat="43.26424" lon="5.9496">
        <ele>261</ele>
        <time>2024-11-10T14:12:28Z</time>
      </trkpt>
      <trkpt lat="43.2642" lon="5.94977">
        <ele>259</ele>
        <time>2024-11-10T14:12:31Z</time>
      </trkpt>
      <trkpt lat="43.26419" lon="5.94994">
        <ele>259</ele>
        <time>2024-11-10T14:12:34Z</time>
      </trkpt>
      <trkpt lat="43.2642" lon="5.95013">
        <ele>259</ele>
        <time>2024-11-10T14:12:37Z</time>
      </trkpt>
      <trkpt lat="43.26426" lon="5.95052">
        <ele>261</ele>
        <time>2024-11-10T14:12:44Z</time>
      </trkpt>
      <trkpt lat="43.26435" lon="5.95085">
        <ele>263</ele>
        <time>2024-11-10T14:12:50Z</time>
      </trkpt>
      <trkpt lat="43.26441" lon="5.951">
        <ele>263</ele>
        <time>2024-11-10T14:12:53Z</time>
      </trkpt>
      <trkpt lat="43.26449" lon="5.95114">
        <ele>264</ele>
        <time>2024-11-10T14:12:56Z</time>
      </trkpt>
      <trkpt lat="43.26471" lon="5.95142">
        <ele>262</ele>
        <time>2024-11-10T14:13:03Z</time>
      </trkpt>
      <trkpt lat="43.26497" lon="5.95169">
        <ele>256</ele>
        <time>2024-11-10T14:13:10Z</time>
      </trkpt>
      <trkpt lat="43.26542" lon="5.95207">
        <ele>259</ele>
        <time>2024-11-10T14:13:23Z</time>
      </trkpt>
      <trkpt lat="43.26555" lon="5.9522">
        <ele>259</ele>
        <time>2024-11-10T14:13:27Z</time>
      </trkpt>
      <trkpt lat="43.26588" lon="5.95265">
        <ele>255</ele>
        <time>2024-11-10T14:13:37Z</time>
      </trkpt>
      <trkpt lat="43.26636" lon="5.95339">
        <ele>258</ele>
        <time>2024-11-10T14:13:54Z</time>
      </trkpt>
      <trkpt lat="43.26648" lon="5.9537">
        <ele>258</ele>
        <time>2024-11-10T14:14:00Z</time>
      </trkpt>
      <trkpt lat="43.26652" lon="5.95387">
        <ele>257</ele>
        <time>2024-11-10T14:14:03Z</time>
      </trkpt>
      <trkpt lat="43.26651" lon="5.95422">
        <ele>255</ele>
        <time>2024-11-10T14:14:09Z</time>
      </trkpt>
      <trkpt lat="43.26647" lon="5.95478">
        <ele>254</ele>
        <time>2024-11-10T14:14:19Z</time>
      </trkpt>
      <trkpt lat="43.26641" lon="5.95513">
        <ele>256</ele>
        <time>2024-11-10T14:14:25Z</time>
      </trkpt>
      <trkpt lat="43.26637" lon="5.95528">
        <ele>257</ele>
        <time>2024-11-10T14:14:28Z</time>
      </trkpt>
      <trkpt lat="43.26631" lon="5.95542">
        <ele>258</ele>
        <time>2024-11-10T14:14:30Z</time>
      </trkpt>
      <trkpt lat="43.26623" lon="5.95553">
        <ele>257</ele>
        <time>2024-11-10T14:14:33Z</time>
      </trkpt>
      <trkpt lat="43.26609" lon="5.95564">
        <ele>255</ele>
        <time>2024-11-10T14:14:37Z</time>
      </trkpt>
      <trkpt lat="43.26577" lon="5.95575">
        <ele>250</ele>
        <time>2024-11-10T14:14:44Z</time>
      </trkpt>
      <trkpt lat="43.26566" lon="5.95581">
        <ele>252</ele>
        <time>2024-11-10T14:14:47Z</time>
      </trkpt>
      <trkpt lat="43.26557" lon="5.95592">
        <ele>254</ele>
        <time>2024-11-10T14:14:50Z</time>
      </trkpt>
      <trkpt lat="43.26551" lon="5.95605">
        <ele>256</ele>
        <time>2024-11-10T14:14:53Z</time>
      </trkpt>
      <trkpt lat="43.26547" lon="5.9562">
        <ele>256</ele>
        <time>2024-11-10T14:14:55Z</time>
      </trkpt>
      <trkpt lat="43.26544" lon="5.95655">
        <ele>256</ele>
        <time>2024-11-10T14:15:01Z</time>
      </trkpt>
      <trkpt lat="43.2654" lon="5.95672">
        <ele>256</ele>
        <time>2024-11-10T14:15:04Z</time>
      </trkpt>
      <trkpt lat="43.26535" lon="5.95689">
        <ele>255</ele>
        <time>2024-11-10T14:15:08Z</time>
      </trkpt>
      <trkpt lat="43.26518" lon="5.95722">
        <ele>252</ele>
        <time>2024-11-10T14:15:14Z</time>
      </trkpt>
      <trkpt lat="43.26482" lon="5.95782">
        <ele>251</ele>
        <time>2024-11-10T14:15:28Z</time>
      </trkpt>
      <trkpt lat="43.26476" lon="5.95797">
        <ele>252</ele>
        <time>2024-11-10T14:15:31Z</time>
      </trkpt>
      <trkpt lat="43.26472" lon="5.95814">
        <ele>252</ele>
        <time>2024-11-10T14:15:34Z</time>
      </trkpt>
      <trkpt lat="43.26464" lon="5.95867">
        <ele>254</ele>
        <time>2024-11-10T14:15:43Z</time>
      </trkpt>
      <trkpt lat="43.26459" lon="5.95885">
        <ele>254</ele>
        <time>2024-11-10T14:15:46Z</time>
      </trkpt>
      <trkpt lat="43.26444" lon="5.9592">
        <ele>251</ele>
        <time>2024-11-10T14:15:53Z</time>
      </trkpt>
      <trkpt lat="43.26409" lon="5.95989">
        <ele>245</ele>
        <time>2024-11-10T14:16:07Z</time>
      </trkpt>
      <trkpt lat="43.26401" lon="5.96007">
        <ele>247</ele>
        <time>2024-11-10T14:16:11Z</time>
      </trkpt>
      <trkpt lat="43.26395" lon="5.96026">
        <ele>249</ele>
        <time>2024-11-10T14:16:14Z</time>
      </trkpt>
      <trkpt lat="43.26341" lon="5.96269">
        <ele>239</ele>
        <time>2024-11-10T14:16:58Z</time>
      </trkpt>
      <trkpt lat="43.26339" lon="5.96285">
        <ele>238</ele>
        <time>2024-11-10T14:17:00Z</time>
      </trkpt>
      <trkpt lat="43.2634" lon="5.96299">
        <ele>238</ele>
        <time>2024-11-10T14:17:03Z</time>
      </trkpt>
      <trkpt lat="43.26342" lon="5.96312">
        <ele>237</ele>
        <time>2024-11-10T14:17:05Z</time>
      </trkpt>
      <trkpt lat="43.26351" lon="5.96337">
        <ele>238</ele>
        <time>2024-11-10T14:17:10Z</time>
      </trkpt>
      <trkpt lat="43.26373" lon="5.96371">
        <ele>242</ele>
        <time>2024-11-10T14:17:17Z</time>
      </trkpt>
      <trkpt lat="43.26391" lon="5.96389">
        <ele>242</ele>
        <time>2024-11-10T14:17:23Z</time>
      </trkpt>
      <trkpt lat="43.26435" lon="5.96424">
        <ele>244</ele>
        <time>2024-11-10T14:17:35Z</time>
      </trkpt>
      <trkpt lat="43.26458" lon="5.96446">
        <ele>248</ele>
        <time>2024-11-10T14:17:41Z</time>
      </trkpt>
      <trkpt lat="43.26473" lon="5.96472">
        <ele>248</ele>
        <time>2024-11-10T14:17:47Z</time>
      </trkpt>
      <trkpt lat="43.26481" lon="5.96507">
        <ele>246</ele>
        <time>2024-11-10T14:17:53Z</time>
      </trkpt>
      <trkpt lat="43.26484" lon="5.96542">
        <ele>245</ele>
        <time>2024-11-10T14:17:59Z</time>
      </trkpt>
      <trkpt lat="43.26475" lon="5.96626">
        <ele>244</ele>
        <time>2024-11-10T14:18:13Z</time>
      </trkpt>
      <trkpt lat="43.26476" lon="5.96655">
        <ele>243</ele>
        <time>2024-11-10T14:18:18Z</time>
      </trkpt>
      <trkpt lat="43.2648" lon="5.96668">
        <ele>243</ele>
        <time>2024-11-10T14:18:21Z</time>
      </trkpt>
      <trkpt lat="43.26488" lon="5.96679">
        <ele>242</ele>
        <time>2024-11-10T14:18:23Z</time>
      </trkpt>
      <trkpt lat="43.26497" lon="5.96687">
        <ele>240</ele>
        <time>2024-11-10T14:18:26Z</time>
      </trkpt>
      <trkpt lat="43.26505" lon="5.96691">
        <ele>242</ele>
        <time>2024-11-10T14:18:28Z</time>
      </trkpt>
      <trkpt lat="43.26525" lon="5.96706">
        <ele>247</ele>
        <time>2024-11-10T14:18:33Z</time>
      </trkpt>
      <trkpt lat="43.26537" lon="5.96725">
        <ele>247</ele>
        <time>2024-11-10T14:18:37Z</time>
      </trkpt>
      <trkpt lat="43.26525" lon="5.96706">
        <ele>247</ele>
        <time>2024-11-10T14:18:42Z</time>
      </trkpt>
      <trkpt lat="43.26505" lon="5.96691">
        <ele>242</ele>
        <time>2024-11-10T14:18:47Z</time>
      </trkpt>
      <trkpt lat="43.26536" lon="5.96737">
        <ele>245</ele>
        <time>2024-11-10T14:18:58Z</time>
      </trkpt>
      <trkpt lat="43.26563" lon="5.96803">
        <ele>240</ele>
        <time>2024-11-10T14:19:11Z</time>
      </trkpt>
      <trkpt lat="43.26586" lon="5.96825">
        <ele>235</ele>
        <time>2024-11-10T14:19:17Z</time>
      </trkpt>
      <trkpt lat="43.26595" lon="5.96837">
        <ele>236</ele>
        <time>2024-11-10T14:19:20Z</time>
      </trkpt>
      <trkpt lat="43.26599" lon="5.96861">
        <ele>237</ele>
        <time>2024-11-10T14:19:24Z</time>
      </trkpt>
      <trkpt lat="43.26598" lon="5.96879">
        <ele>237</ele>
        <time>2024-11-10T14:19:27Z</time>
      </trkpt>
      <trkpt lat="43.26595" lon="5.96895">
        <ele>236</ele>
        <time>2024-11-10T14:19:30Z</time>
      </trkpt>
      <trkpt lat="43.26589" lon="5.96913">
        <ele>234</ele>
        <time>2024-11-10T14:19:34Z</time>
      </trkpt>
      <trkpt lat="43.26569" lon="5.96945">
        <ele>235</ele>
        <time>2024-11-10T14:19:41Z</time>
      </trkpt>
      <trkpt lat="43.26565" lon="5.96957">
        <ele>236</ele>
        <time>2024-11-10T14:19:43Z</time>
      </trkpt>
      <trkpt lat="43.26563" lon="5.9697">
        <ele>237</ele>
        <time>2024-11-10T14:19:45Z</time>
      </trkpt>
      <trkpt lat="43.26565" lon="5.96983">
        <ele>236</ele>
        <time>2024-11-10T14:19:47Z</time>
      </trkpt>
      <trkpt lat="43.2657" lon="5.96995">
        <ele>235</ele>
        <time>2024-11-10T14:19:50Z</time>
      </trkpt>
      <trkpt lat="43.26602" lon="5.97054">
        <ele>237</ele>
        <time>2024-11-10T14:20:02Z</time>
      </trkpt>
      <trkpt lat="43.26641" lon="5.97141">
        <ele>239</ele>
        <time>2024-11-10T14:20:20Z</time>
      </trkpt>
      <trkpt lat="43.26656" lon="5.97176">
        <ele>235</ele>
        <time>2024-11-10T14:20:27Z</time>
      </trkpt>
      <trkpt lat="43.26702" lon="5.97322">
        <ele>228</ele>
        <time>2024-11-10T14:20:54Z</time>
      </trkpt>
      <trkpt lat="43.26727" lon="5.97455">
        <ele>224</ele>
        <time>2024-11-10T14:21:17Z</time>
      </trkpt>
      <trkpt lat="43.26703" lon="5.97461">
        <ele>222</ele>
        <time>2024-11-10T14:21:23Z</time>
      </trkpt>
      <trkpt lat="43.26693" lon="5.97468">
        <ele>221</ele>
        <time>2024-11-10T14:21:25Z</time>
      </trkpt>
      <trkpt lat="43.26685" lon="5.97477">
        <ele>220</ele>
        <time>2024-11-10T14:21:28Z</time>
      </trkpt>
      <trkpt lat="43.26678" lon="5.97489">
        <ele>219</ele>
        <time>2024-11-10T14:21:30Z</time>
      </trkpt>
      <trkpt lat="43.26674" lon="5.97504">
        <ele>218</ele>
        <time>2024-11-10T14:21:33Z</time>
      </trkpt>
      <trkpt lat="43.26672" lon="5.97518">
        <ele>218</ele>
        <time>2024-11-10T14:21:35Z</time>
      </trkpt>
      <trkpt lat="43.26674" lon="5.97547">
        <ele>219</ele>
        <time>2024-11-10T14:21:40Z</time>
      </trkpt>
      <trkpt lat="43.26718" lon="5.977">
        <ele>224</ele>
        <time>2024-11-10T14:22:08Z</time>
      </trkpt>
      <trkpt lat="43.26722" lon="5.97719">
        <ele>223</ele>
        <time>2024-11-10T14:22:12Z</time>
      </trkpt>
      <trkpt lat="43.26738" lon="5.97825">
        <ele>218</ele>
        <time>2024-11-10T14:22:30Z</time>
      </trkpt>
      <trkpt lat="43.26745" lon="5.97863">
        <ele>214</ele>
        <time>2024-11-10T14:22:37Z</time>
      </trkpt>
      <trkpt lat="43.26767" lon="5.97925">
        <ele>215</ele>
        <time>2024-11-10T14:22:49Z</time>
      </trkpt>
      <trkpt lat="43.26773" lon="5.97957">
        <ele>216</ele>
        <time>2024-11-10T14:22:54Z</time>
      </trkpt>
      <trkpt lat="43.2678" lon="5.98039">
        <ele>214</ele>
        <time>2024-11-10T14:23:08Z</time>
      </trkpt>
      <trkpt lat="43.26779" lon="5.9806">
        <ele>213</ele>
        <time>2024-11-10T14:23:12Z</time>
      </trkpt>
      <trkpt lat="43.26776" lon="5.98068">
        <ele>212</ele>
        <time>2024-11-10T14:23:13Z</time>
      </trkpt>
      <trkpt lat="43.26767" lon="5.98084">
        <ele>210</ele>
        <time>2024-11-10T14:23:17Z</time>
      </trkpt>
      <trkpt lat="43.26732" lon="5.98122">
        <ele>210</ele>
        <time>2024-11-10T14:23:27Z</time>
      </trkpt>
      <trkpt lat="43.26718" lon="5.98143">
        <ele>211</ele>
        <time>2024-11-10T14:23:32Z</time>
      </trkpt>
      <trkpt lat="43.26681" lon="5.98207">
        <ele>210</ele>
        <time>2024-11-10T14:23:46Z</time>
      </trkpt>
      <trkpt lat="43.26652" lon="5.98244">
        <ele>208</ele>
        <time>2024-11-10T14:23:55Z</time>
      </trkpt>
      <trkpt lat="43.26629" lon="5.98268">
        <ele>207</ele>
        <time>2024-11-10T14:24:02Z</time>
      </trkpt>
      <trkpt lat="43.26602" lon="5.98292">
        <ele>205</ele>
        <time>2024-11-10T14:24:09Z</time>
      </trkpt>
      <trkpt lat="43.26533" lon="5.98343">
        <ele>203</ele>
        <time>2024-11-10T14:24:28Z</time>
      </trkpt>
      <trkpt lat="43.26504" lon="5.98358">
        <ele>205</ele>
        <time>2024-11-10T14:24:35Z</time>
      </trkpt>
      <trkpt lat="43.2649" lon="5.98362">
        <ele>207</ele>
        <time>2024-11-10T14:24:38Z</time>
      </trkpt>
      <trkpt lat="43.26476" lon="5.98363">
        <ele>208</ele>
        <time>2024-11-10T14:24:42Z</time>
      </trkpt>
      <trkpt lat="43.26377" lon="5.98344">
        <ele>210</ele>
        <time>2024-11-10T14:25:05Z</time>
      </trkpt>
      <trkpt lat="43.26334" lon="5.98332">
        <ele>209</ele>
        <time>2024-11-10T14:25:15Z</time>
      </trkpt>
      <trkpt lat="43.26317" lon="5.98325">
        <ele>211</ele>
        <time>2024-11-10T14:25:19Z</time>
      </trkpt>
      <trkpt lat="43.26302" lon="5.98314">
        <ele>213</ele>
        <time>2024-11-10T14:25:23Z</time>
      </trkpt>
      <trkpt lat="43.26247" lon="5.98262">
        <ele>207</ele>
        <time>2024-11-10T14:25:39Z</time>
      </trkpt>
      <trkpt lat="43.26219" lon="5.98238">
        <ele>206</ele>
        <time>2024-11-10T14:25:47Z</time>
      </trkpt>
      <trkpt lat="43.26205" lon="5.9823">
        <ele>206</ele>
        <time>2024-11-10T14:25:50Z</time>
      </trkpt>
      <trkpt lat="43.26191" lon="5.98228">
        <ele>207</ele>
        <time>2024-11-10T14:25:53Z</time>
      </trkpt>
      <trkpt lat="43.26146" lon="5.98228">
        <ele>207</ele>
        <time>2024-11-10T14:26:04Z</time>
      </trkpt>
      <trkpt lat="43.26115" lon="5.98232">
        <ele>204</ele>
        <time>2024-11-10T14:26:11Z</time>
      </trkpt>
      <trkpt lat="43.26087" lon="5.98245">
        <ele>203</ele>
        <time>2024-11-10T14:26:18Z</time>
      </trkpt>
      <trkpt lat="43.26058" lon="5.98271">
        <ele>202</ele>
        <time>2024-11-10T14:26:26Z</time>
      </trkpt>
      <trkpt lat="43.26044" lon="5.98285">
        <ele>201</ele>
        <time>2024-11-10T14:26:30Z</time>
      </trkpt>
      <trkpt lat="43.26006" lon="5.9834">
        <ele>199</ele>
        <time>2024-11-10T14:26:43Z</time>
      </trkpt>
      <trkpt lat="43.25995" lon="5.98354">
        <ele>200</ele>
        <time>2024-11-10T14:26:47Z</time>
      </trkpt>
      <trkpt lat="43.25936" lon="5.98412">
        <ele>200</ele>
        <time>2024-11-10T14:27:04Z</time>
      </trkpt>
      <trkpt lat="43.2592" lon="5.98424">
        <ele>200</ele>
        <time>2024-11-10T14:27:08Z</time>
      </trkpt>
      <trkpt lat="43.25883" lon="5.98446">
        <ele>202</ele>
        <time>2024-11-10T14:27:17Z</time>
      </trkpt>
      <trkpt lat="43.25832" lon="5.9847">
        <ele>200</ele>
        <time>2024-11-10T14:27:30Z</time>
      </trkpt>
      <trkpt lat="43.25783" lon="5.985">
        <ele>199</ele>
        <time>2024-11-10T14:27:42Z</time>
      </trkpt>
      <trkpt lat="43.2575" lon="5.98523">
        <ele>199</ele>
        <time>2024-11-10T14:27:51Z</time>
      </trkpt>
      <trkpt lat="43.2569" lon="5.98571">
        <ele>199</ele>
        <time>2024-11-10T14:28:07Z</time>
      </trkpt>
      <trkpt lat="43.25672" lon="5.98587">
        <ele>198</ele>
        <time>2024-11-10T14:28:12Z</time>
      </trkpt>
      <trkpt lat="43.25652" lon="5.98613">
        <ele>198</ele>
        <time>2024-11-10T14:28:19Z</time>
      </trkpt>
      <trkpt lat="43.25642" lon="5.9863">
        <ele>198</ele>
        <time>2024-11-10T14:28:22Z</time>
      </trkpt>
      <trkpt lat="43.25628" lon="5.98658">
        <ele>198</ele>
        <time>2024-11-10T14:28:28Z</time>
      </trkpt>
      <trkpt lat="43.2555" lon="5.98778">
        <ele>190</ele>
        <time>2024-11-10T14:28:56Z</time>
      </trkpt>
      <trkpt lat="43.25537" lon="5.98803">
        <ele>189</ele>
        <time>2024-11-10T14:29:01Z</time>
      </trkpt>
      <trkpt lat="43.25514" lon="5.98863">
        <ele>191</ele>
        <time>2024-11-10T14:29:12Z</time>
      </trkpt>
      <trkpt lat="43.25501" lon="5.98885">
        <ele>192</ele>
        <time>2024-11-10T14:29:17Z</time>
      </trkpt>
      <trkpt lat="43.25478" lon="5.98916">
        <ele>192</ele>
        <time>2024-11-10T14:29:25Z</time>
      </trkpt>
      <trkpt lat="43.25465" lon="5.98944">
        <ele>192</ele>
        <time>2024-11-10T14:29:30Z</time>
      </trkpt>
      <trkpt lat="43.25426" lon="5.99075">
        <ele>190</ele>
        <time>2024-11-10T14:29:54Z</time>
      </trkpt>
      <trkpt lat="43.25405" lon="5.99132">
        <ele>188</ele>
        <time>2024-11-10T14:30:05Z</time>
      </trkpt>
      <trkpt lat="43.25395" lon="5.99153">
        <ele>188</ele>
        <time>2024-11-10T14:30:09Z</time>
      </trkpt>
      <trkpt lat="43.25364" lon="5.99198">
        <ele>188</ele>
        <time>2024-11-10T14:30:20Z</time>
      </trkpt>
      <trkpt lat="43.25326" lon="5.99243">
        <ele>190</ele>
        <time>2024-11-10T14:30:32Z</time>
      </trkpt>
      <trkpt lat="43.25274" lon="5.99315">
        <ele>190</ele>
        <time>2024-11-10T14:30:49Z</time>
      </trkpt>
      <trkpt lat="43.25222" lon="5.99399">
        <ele>192</ele>
        <time>2024-11-10T14:31:08Z</time>
      </trkpt>
      <trkpt lat="43.25211" lon="5.99413">
        <ele>192</ele>
        <time>2024-11-10T14:31:11Z</time>
      </trkpt>
      <trkpt lat="43.25199" lon="5.99425">
        <ele>191</ele>
        <time>2024-11-10T14:31:15Z</time>
      </trkpt>
      <trkpt lat="43.25186" lon="5.99433">
        <ele>189</ele>
        <time>2024-11-10T14:31:18Z</time>
      </trkpt>
      <trkpt lat="43.25138" lon="5.99445">
        <ele>184</ele>
        <time>2024-11-10T14:31:29Z</time>
      </trkpt>
      <trkpt lat="43.25128" lon="5.99452">
        <ele>183</ele>
        <time>2024-11-10T14:31:32Z</time>
      </trkpt>
      <trkpt lat="43.25114" lon="5.9947">
        <ele>183</ele>
        <time>2024-11-10T14:31:37Z</time>
      </trkpt>
      <trkpt lat="43.25109" lon="5.99482">
        <ele>183</ele>
        <time>2024-11-10T14:31:39Z</time>
      </trkpt>
      <trkpt lat="43.25106" lon="5.99495">
        <ele>183</ele>
        <time>2024-11-10T14:31:41Z</time>
      </trkpt>
      <trkpt lat="43.25104" lon="5.99623">
        <ele>182</ele>
        <time>2024-11-10T14:32:03Z</time>
      </trkpt>
      <trkpt lat="43.251" lon="5.99663">
        <ele>180</ele>
        <time>2024-11-10T14:32:10Z</time>
      </trkpt>
      <trkpt lat="43.25097" lon="5.99682">
        <ele>181</ele>
        <time>2024-11-10T14:32:13Z</time>
      </trkpt>
      <trkpt lat="43.2509" lon="5.9971">
        <ele>181</ele>
        <time>2024-11-10T14:32:18Z</time>
      </trkpt>
      <trkpt lat="43.25074" lon="5.99749">
        <ele>180</ele>
        <time>2024-11-10T14:32:26Z</time>
      </trkpt>
      <trkpt lat="43.25044" lon="5.99806">
        <ele>185</ele>
        <time>2024-11-10T14:32:38Z</time>
      </trkpt>
      <trkpt lat="43.25022" lon="5.99837">
        <ele>184</ele>
        <time>2024-11-10T14:32:45Z</time>
      </trkpt>
      <trkpt lat="43.25006" lon="5.99849">
        <ele>184</ele>
        <time>2024-11-10T14:32:49Z</time>
      </trkpt>
      <trkpt lat="43.24997" lon="5.99851">
        <ele>182</ele>
        <time>2024-11-10T14:32:51Z</time>
      </trkpt>
      <trkpt lat="43.24965" lon="5.99843">
        <ele>179</ele>
        <time>2024-11-10T14:32:59Z</time>
      </trkpt>
      <trkpt lat="43.2495" lon="5.99842">
        <ele>178</ele>
        <time>2024-11-10T14:33:03Z</time>
      </trkpt>
      <trkpt lat="43.24907" lon="5.99846">
        <ele>177</ele>
        <time>2024-11-10T14:33:13Z</time>
      </trkpt>
      <trkpt lat="43.2487" lon="5.99855">
        <ele>176</ele>
        <time>2024-11-10T14:33:21Z</time>
      </trkpt>
      <trkpt lat="43.24839" lon="5.99868">
        <ele>175</ele>
        <time>2024-11-10T14:33:29Z</time>
      </trkpt>
      <trkpt lat="43.24744" lon="5.99916">
        <ele>167</ele>
        <time>2024-11-10T14:33:53Z</time>
      </trkpt>
      <trkpt lat="43.24736" lon="5.99922">
        <ele>167</ele>
        <time>2024-11-10T14:33:55Z</time>
      </trkpt>
      <trkpt lat="43.24697" lon="5.99958">
        <ele>164</ele>
        <time>2024-11-10T14:34:06Z</time>
      </trkpt>
      <trkpt lat="43.24686" lon="5.99965">
        <ele>163</ele>
        <time>2024-11-10T14:34:09Z</time>
      </trkpt>
      <trkpt lat="43.24669" lon="5.99975">
        <ele>161</ele>
        <time>2024-11-10T14:34:13Z</time>
      </trkpt>
      <trkpt lat="43.24644" lon="5.99985">
        <ele>160</ele>
        <time>2024-11-10T14:34:19Z</time>
      </trkpt>
      <trkpt lat="43.24561" lon="6.00021">
        <ele>159</ele>
        <time>2024-11-10T14:34:39Z</time>
      </trkpt>
      <trkpt lat="43.24548" lon="6.00026">
        <ele>159</ele>
        <time>2024-11-10T14:34:42Z</time>
      </trkpt>
      <trkpt lat="43.24519" lon="6.00038">
        <ele>159</ele>
        <time>2024-11-10T14:34:50Z</time>
      </trkpt>
      <trkpt lat="43.24494" lon="6.00043">
        <ele>159</ele>
        <time>2024-11-10T14:34:55Z</time>
      </trkpt>
      <trkpt lat="43.24445" lon="6.00045">
        <ele>158</ele>
        <time>2024-11-10T14:35:07Z</time>
      </trkpt>
      <trkpt lat="43.24438" lon="6.00054">
        <ele>158</ele>
        <time>2024-11-10T14:35:09Z</time>
      </trkpt>
      <trkpt lat="43.24417" lon="6.00062">
        <ele>158</ele>
        <time>2024-11-10T14:35:14Z</time>
      </trkpt>
      <trkpt lat="43.24387" lon="6.00076">
        <ele>157</ele>
        <time>2024-11-10T14:35:22Z</time>
      </trkpt>
      <trkpt lat="43.2435" lon="6.00121">
        <ele>158</ele>
        <time>2024-11-10T14:35:33Z</time>
      </trkpt>
      <trkpt lat="43.24301" lon="6.00194">
        <ele>162</ele>
        <time>2024-11-10T14:35:50Z</time>
      </trkpt>
      <trkpt lat="43.24277" lon="6.00223">
        <ele>164</ele>
        <time>2024-11-10T14:35:58Z</time>
      </trkpt>
      <trkpt lat="43.24242" lon="6.00252">
        <ele>165</ele>
        <time>2024-11-10T14:36:07Z</time>
      </trkpt>
      <trkpt lat="43.24235" lon="6.00244">
        <ele>162</ele>
        <time>2024-11-10T14:36:09Z</time>
      </trkpt>
      <trkpt lat="43.24186" lon="6.00303">
        <ele>158</ele>
        <time>2024-11-10T14:36:24Z</time>
      </trkpt>
      <trkpt lat="43.24157" lon="6.00332">
        <ele>156</ele>
        <time>2024-11-10T14:36:33Z</time>
      </trkpt>
      <trkpt lat="43.2415" lon="6.00339">
        <ele>156</ele>
        <time>2024-11-10T14:36:35Z</time>
      </trkpt>
      <trkpt lat="43.24107" lon="6.00383">
        <ele>160</ele>
        <time>2024-11-10T14:36:47Z</time>
      </trkpt>
      <trkpt lat="43.24093" lon="6.00392">
        <ele>160</ele>
        <time>2024-11-10T14:36:51Z</time>
      </trkpt>
      <trkpt lat="43.23989" lon="6.00451">
        <ele>157</ele>
        <time>2024-11-10T14:37:17Z</time>
      </trkpt>
      <trkpt lat="43.23969" lon="6.00459">
        <ele>158</ele>
        <time>2024-11-10T14:37:22Z</time>
      </trkpt>
      <trkpt lat="43.23868" lon="6.00469">
        <ele>154</ele>
        <time>2024-11-10T14:37:46Z</time>
      </trkpt>
      <trkpt lat="43.23838" lon="6.0048">
        <ele>153</ele>
        <time>2024-11-10T14:37:53Z</time>
      </trkpt>
      <trkpt lat="43.23823" lon="6.00489">
        <ele>152</ele>
        <time>2024-11-10T14:37:57Z</time>
      </trkpt>
      <trkpt lat="43.23793" lon="6.00511">
        <ele>151</ele>
        <time>2024-11-10T14:38:05Z</time>
      </trkpt>
      <trkpt lat="43.23772" lon="6.00535">
        <ele>151</ele>
        <time>2024-11-10T14:38:11Z</time>
      </trkpt>
      <trkpt lat="43.23755" lon="6.00564">
        <ele>149</ele>
        <time>2024-11-10T14:38:17Z</time>
      </trkpt>
      <trkpt lat="43.2374" lon="6.00596">
        <ele>149</ele>
        <time>2024-11-10T14:38:24Z</time>
      </trkpt>
      <trkpt lat="43.23728" lon="6.00635">
        <ele>151</ele>
        <time>2024-11-10T14:38:31Z</time>
      </trkpt>
      <trkpt lat="43.23713" lon="6.00687">
        <ele>151</ele>
        <time>2024-11-10T14:38:41Z</time>
      </trkpt>
      <trkpt lat="43.23703" lon="6.00722">
        <ele>151</ele>
        <time>2024-11-10T14:38:47Z</time>
      </trkpt>
      <trkpt lat="43.2369" lon="6.00751">
        <ele>150</ele>
        <time>2024-11-10T14:38:53Z</time>
      </trkpt>
      <trkpt lat="43.2367" lon="6.00787">
        <ele>148</ele>
        <time>2024-11-10T14:39:01Z</time>
      </trkpt>
      <trkpt lat="43.23644" lon="6.00815">
        <ele>148</ele>
        <time>2024-11-10T14:39:08Z</time>
      </trkpt>
      <trkpt lat="43.23616" lon="6.00836">
        <ele>148</ele>
        <time>2024-11-10T14:39:16Z</time>
      </trkpt>
      <trkpt lat="43.23586" lon="6.00849">
        <ele>149</ele>
        <time>2024-11-10T14:39:23Z</time>
      </trkpt>
      <trkpt lat="43.2357" lon="6.00852">
        <ele>148</ele>
        <time>2024-11-10T14:39:27Z</time>
      </trkpt>
      <trkpt lat="43.23549" lon="6.00852">
        <ele>147</ele>
        <time>2024-11-10T14:39:32Z</time>
      </trkpt>
      <trkpt lat="43.23463" lon="6.0084">
        <ele>145</ele>
        <time>2024-11-10T14:39:52Z</time>
      </trkpt>
      <trkpt lat="43.23405" lon="6.00833">
        <ele>145</ele>
        <time>2024-11-10T14:40:06Z</time>
      </trkpt>
      <trkpt lat="43.2339" lon="6.00833">
        <ele>144</ele>
        <time>2024-11-10T14:40:09Z</time>
      </trkpt>
      <trkpt lat="43.23373" lon="6.00835">
        <ele>144</ele>
        <time>2024-11-10T14:40:13Z</time>
      </trkpt>
      <trkpt lat="43.23357" lon="6.00842">
        <ele>145</ele>
        <time>2024-11-10T14:40:17Z</time>
      </trkpt>
      <trkpt lat="43.23343" lon="6.00854">
        <ele>147</ele>
        <time>2024-11-10T14:40:21Z</time>
      </trkpt>
      <trkpt lat="43.23258" lon="6.00942">
        <ele>149</ele>
        <time>2024-11-10T14:40:46Z</time>
      </trkpt>
      <trkpt lat="43.23243" lon="6.00955">
        <ele>150</ele>
        <time>2024-11-10T14:40:50Z</time>
      </trkpt>
      <trkpt lat="43.23201" lon="6.00984">
        <ele>149</ele>
        <time>2024-11-10T14:41:01Z</time>
      </trkpt>
      <trkpt lat="43.23091" lon="6.01072">
        <ele>144</ele>
        <time>2024-11-10T14:41:31Z</time>
      </trkpt>
      <trkpt lat="43.23059" lon="6.01093">
        <ele>144</ele>
        <time>2024-11-10T14:41:39Z</time>
      </trkpt>
      <trkpt lat="43.22907" lon="6.01172">
        <ele>140</ele>
        <time>2024-11-10T14:42:17Z</time>
      </trkpt>
      <trkpt lat="43.22883" lon="6.01188">
        <ele>139</ele>
        <time>2024-11-10T14:42:23Z</time>
      </trkpt>
      <trkpt lat="43.22863" lon="6.01208">
        <ele>139</ele>
        <time>2024-11-10T14:42:29Z</time>
      </trkpt>
      <trkpt lat="43.22848" lon="6.01234">
        <ele>139</ele>
        <time>2024-11-10T14:42:34Z</time>
      </trkpt>
      <trkpt lat="43.22843" lon="6.01248">
        <ele>139</ele>
        <time>2024-11-10T14:42:37Z</time>
      </trkpt>
      <trkpt lat="43.22841" lon="6.01261">
        <ele>139</ele>
        <time>2024-11-10T14:42:39Z</time>
      </trkpt>
      <trkpt lat="43.22841" lon="6.01276">
        <ele>138</ele>
        <time>2024-11-10T14:42:42Z</time>
      </trkpt>
      <trkpt lat="43.22848" lon="6.01325">
        <ele>139</ele>
        <time>2024-11-10T14:42:50Z</time>
      </trkpt>
      <trkpt lat="43.22852" lon="6.01363">
        <ele>143</ele>
        <time>2024-11-10T14:42:57Z</time>
      </trkpt>
      <trkpt lat="43.22851" lon="6.01381">
        <ele>144</ele>
        <time>2024-11-10T14:43:00Z</time>
      </trkpt>
      <trkpt lat="43.22847" lon="6.014">
        <ele>144</ele>
        <time>2024-11-10T14:43:03Z</time>
      </trkpt>
      <trkpt lat="43.22832" lon="6.01423">
        <ele>140</ele>
        <time>2024-11-10T14:43:09Z</time>
      </trkpt>
      <trkpt lat="43.22822" lon="6.01432">
        <ele>141</ele>
        <time>2024-11-10T14:43:11Z</time>
      </trkpt>
      <trkpt lat="43.22796" lon="6.0145">
        <ele>141</ele>
        <time>2024-11-10T14:43:18Z</time>
      </trkpt>
      <trkpt lat="43.22704" lon="6.01503">
        <ele>131</ele>
        <time>2024-11-10T14:43:41Z</time>
      </trkpt>
      <trkpt lat="43.22665" lon="6.01534">
        <ele>130</ele>
        <time>2024-11-10T14:43:52Z</time>
      </trkpt>
      <trkpt lat="43.22608" lon="6.01586">
        <ele>129</ele>
        <time>2024-11-10T14:44:08Z</time>
      </trkpt>
      <trkpt lat="43.22589" lon="6.0161">
        <ele>130</ele>
        <time>2024-11-10T14:44:14Z</time>
      </trkpt>
      <trkpt lat="43.22565" lon="6.01653">
        <ele>132</ele>
        <time>2024-11-10T14:44:23Z</time>
      </trkpt>
      <trkpt lat="43.22557" lon="6.01672">
        <ele>132</ele>
        <time>2024-11-10T14:44:27Z</time>
      </trkpt>
      <trkpt lat="43.2255" lon="6.01697">
        <ele>133</ele>
        <time>2024-11-10T14:44:32Z</time>
      </trkpt>
      <trkpt lat="43.22542" lon="6.01733">
        <ele>134</ele>
        <time>2024-11-10T14:44:38Z</time>
      </trkpt>
      <trkpt lat="43.22541" lon="6.01755">
        <ele>134</ele>
        <time>2024-11-10T14:44:42Z</time>
      </trkpt>
      <trkpt lat="43.22542" lon="6.01793">
        <ele>132</ele>
        <time>2024-11-10T14:44:48Z</time>
      </trkpt>
      <trkpt lat="43.22548" lon="6.01823">
        <ele>132</ele>
        <time>2024-11-10T14:44:53Z</time>
      </trkpt>
      <trkpt lat="43.22559" lon="6.01901">
        <ele>133</ele>
        <time>2024-11-10T14:45:07Z</time>
      </trkpt>
      <trkpt lat="43.2256" lon="6.01918">
        <ele>133</ele>
        <time>2024-11-10T14:45:10Z</time>
      </trkpt>
      <trkpt lat="43.2256" lon="6.01932">
        <ele>133</ele>
        <time>2024-11-10T14:45:12Z</time>
      </trkpt>
      <trkpt lat="43.22547" lon="6.02035">
        <ele>134</ele>
        <time>2024-11-10T14:45:30Z</time>
      </trkpt>
      <trkpt lat="43.22537" lon="6.02077">
        <ele>133</ele>
        <time>2024-11-10T14:45:38Z</time>
      </trkpt>
      <trkpt lat="43.22532" lon="6.02092">
        <ele>133</ele>
        <time>2024-11-10T14:45:40Z</time>
      </trkpt>
      <trkpt lat="43.22515" lon="6.02122">
        <ele>133</ele>
        <time>2024-11-10T14:45:47Z</time>
      </trkpt>
      <trkpt lat="43.22497" lon="6.02146">
        <ele>132</ele>
        <time>2024-11-10T14:45:53Z</time>
      </trkpt>
      <trkpt lat="43.22472" lon="6.02164">
        <ele>130</ele>
        <time>2024-11-10T14:45:59Z</time>
      </trkpt>
      <trkpt lat="43.22425" lon="6.02191">
        <ele>128</ele>
        <time>2024-11-10T14:46:11Z</time>
      </trkpt>
      <trkpt lat="43.22405" lon="6.02205">
        <ele>128</ele>
        <time>2024-11-10T14:46:16Z</time>
      </trkpt>
      <trkpt lat="43.22382" lon="6.02226">
        <ele>127</ele>
        <time>2024-11-10T14:46:23Z</time>
      </trkpt>
      <trkpt lat="43.22313" lon="6.02315">
        <ele>125</ele>
        <time>2024-11-10T14:46:45Z</time>
      </trkpt>
      <trkpt lat="43.22307" lon="6.02323">
        <ele>126</ele>
        <time>2024-11-10T14:46:47Z</time>
      </trkpt>
      <trkpt lat="43.22287" lon="6.02341">
        <ele>131</ele>
        <time>2024-11-10T14:46:53Z</time>
      </trkpt>
      <trkpt lat="43.22278" lon="6.02344">
        <ele>132</ele>
        <time>2024-11-10T14:46:55Z</time>
      </trkpt>
      <trkpt lat="43.22267" lon="6.02343">
        <ele>133</ele>
        <time>2024-11-10T14:46:57Z</time>
      </trkpt>
      <trkpt lat="43.22256" lon="6.0234">
        <ele>132</ele>
        <time>2024-11-10T14:47:00Z</time>
      </trkpt>
      <trkpt lat="43.22209" lon="6.02313">
        <ele>128</ele>
        <time>2024-11-10T14:47:12Z</time>
      </trkpt>
      <trkpt lat="43.22189" lon="6.02305">
        <ele>128</ele>
        <time>2024-11-10T14:47:17Z</time>
      </trkpt>
      <trkpt lat="43.22174" lon="6.02302">
        <ele>128</ele>
        <time>2024-11-10T14:47:20Z</time>
      </trkpt>
      <trkpt lat="43.22159" lon="6.023">
        <ele>127</ele>
        <time>2024-11-10T14:47:24Z</time>
      </trkpt>
      <trkpt lat="43.22145" lon="6.02302">
        <ele>126</ele>
        <time>2024-11-10T14:47:27Z</time>
      </trkpt>
      <trkpt lat="43.22121" lon="6.02309">
        <ele>124</ele>
        <time>2024-11-10T14:47:33Z</time>
      </trkpt>
      <trkpt lat="43.22074" lon="6.02339">
        <ele>123</ele>
        <time>2024-11-10T14:47:45Z</time>
      </trkpt>
      <trkpt lat="43.22045" lon="6.02361">
        <ele>122</ele>
        <time>2024-11-10T14:47:53Z</time>
      </trkpt>
      <trkpt lat="43.2195" lon="6.02452">
        <ele>122</ele>
        <time>2024-11-10T14:48:20Z</time>
      </trkpt>
      <trkpt lat="43.21913" lon="6.02484">
        <ele>121</ele>
        <time>2024-11-10T14:48:30Z</time>
      </trkpt>
      <trkpt lat="43.21828" lon="6.02531">
        <ele>118</ele>
        <time>2024-11-10T14:48:51Z</time>
      </trkpt>
      <trkpt lat="43.218" lon="6.02544">
        <ele>118</ele>
        <time>2024-11-10T14:48:58Z</time>
      </trkpt>
      <trkpt lat="43.21756" lon="6.02559">
        <ele>117</ele>
        <time>2024-11-10T14:49:09Z</time>
      </trkpt>
      <trkpt lat="43.21708" lon="6.02571">
        <ele>116</ele>
        <time>2024-11-10T14:49:20Z</time>
      </trkpt>
      <trkpt lat="43.21692" lon="6.02574">
        <ele>115</ele>
        <time>2024-11-10T14:49:24Z</time>
      </trkpt>
      <trkpt lat="43.21615" lon="6.02565">
        <ele>112</ele>
        <time>2024-11-10T14:49:42Z</time>
      </trkpt>
      <trkpt lat="43.216" lon="6.02566">
        <ele>112</ele>
        <time>2024-11-10T14:49:45Z</time>
      </trkpt>
      <trkpt lat="43.21585" lon="6.02569">
        <ele>112</ele>
        <time>2024-11-10T14:49:49Z</time>
      </trkpt>
      <trkpt lat="43.21508" lon="6.02607">
        <ele>114</ele>
        <time>2024-11-10T14:50:08Z</time>
      </trkpt>
      <trkpt lat="43.21315" lon="6.02675">
        <ele>112</ele>
        <time>2024-11-10T14:50:55Z</time>
      </trkpt>
      <trkpt lat="43.21293" lon="6.02686">
        <ele>112</ele>
        <time>2024-11-10T14:51:00Z</time>
      </trkpt>
      <trkpt lat="43.21277" lon="6.02698">
        <ele>112</ele>
        <time>2024-11-10T14:51:04Z</time>
      </trkpt>
      <trkpt lat="43.2122" lon="6.02756">
        <ele>113</ele>
        <time>2024-11-10T14:51:21Z</time>
      </trkpt>
      <trkpt lat="43.21157" lon="6.02807">
        <ele>110</ele>
        <time>2024-11-10T14:51:38Z</time>
      </trkpt>
      <trkpt lat="43.21137" lon="6.02827">
        <ele>109</ele>
        <time>2024-11-10T14:51:44Z</time>
      </trkpt>
      <trkpt lat="43.21069" lon="6.02926">
        <ele>110</ele>
        <time>2024-11-10T14:52:07Z</time>
      </trkpt>
      <trkpt lat="43.21059" lon="6.02936">
        <ele>110</ele>
        <time>2024-11-10T14:52:10Z</time>
      </trkpt>
      <trkpt lat="43.21047" lon="6.02944">
        <ele>110</ele>
        <time>2024-11-10T14:52:13Z</time>
      </trkpt>
      <trkpt lat="43.21023" lon="6.02949">
        <ele>109</ele>
        <time>2024-11-10T14:52:19Z</time>
      </trkpt>
      <trkpt lat="43.21011" lon="6.02949">
        <ele>108</ele>
        <time>2024-11-10T14:52:21Z</time>
      </trkpt>
      <trkpt lat="43.20956" lon="6.02939">
        <ele>107</ele>
        <time>2024-11-10T14:52:34Z</time>
      </trkpt>
      <trkpt lat="43.20948" lon="6.02926">
        <ele>106</ele>
        <time>2024-11-10T14:52:37Z</time>
      </trkpt>
      <trkpt lat="43.20945" lon="6.02907">
        <ele>105</ele>
        <time>2024-11-10T14:52:41Z</time>
      </trkpt>
      <trkpt lat="43.20942" lon="6.02899">
        <ele>104</ele>
        <time>2024-11-10T14:52:42Z</time>
      </trkpt>
      <trkpt lat="43.20915" lon="6.02725">
        <ele>101</ele>
        <time>2024-11-10T14:53:12Z</time>
      </trkpt>
      <trkpt lat="43.20885" lon="6.02739">
        <ele>103</ele>
        <time>2024-11-10T14:53:20Z</time>
      </trkpt>
      <trkpt lat="43.20861" lon="6.02754">
        <ele>104</ele>
        <time>2024-11-10T14:53:26Z</time>
      </trkpt>
      <trkpt lat="43.20864" lon="6.02764">
        <ele>104</ele>
        <time>2024-11-10T14:53:28Z</time>
      </trkpt>
      <trkpt lat="43.20873" lon="6.02866">
        <ele>105</ele>
        <time>2024-11-10T14:53:45Z</time>
      </trkpt>
      <trkpt lat="43.20864" lon="6.02764">
        <ele>104</ele>
        <time>2024-11-10T14:54:03Z</time>
      </trkpt>
      <trkpt lat="43.20861" lon="6.02754">
        <ele>104</ele>
        <time>2024-11-10T14:54:05Z</time>
      </trkpt>
      <trkpt lat="43.20849" lon="6.0276">
        <ele>105</ele>
        <time>2024-11-10T14:54:08Z</time>
      </trkpt>
      <trkpt lat="43.20818" lon="6.02769">
        <ele>105</ele>
        <time>2024-11-10T14:54:15Z</time>
      </trkpt>
      <trkpt lat="43.2081" lon="6.02775">
        <ele>104</ele>
        <time>2024-11-10T14:54:17Z</time>
      </trkpt>
      <trkpt lat="43.20813" lon="6.02784">
        <ele>104</ele>
        <time>2024-11-10T14:54:19Z</time>
      </trkpt>
      <trkpt lat="43.20812" lon="6.02883">
        <ele>106</ele>
        <time>2024-11-10T14:54:36Z</time>
      </trkpt>
      <trkpt lat="43.20739" lon="6.02883">
        <ele>103</ele>
        <time>2024-11-10T14:54:53Z</time>
      </trkpt>
      <trkpt lat="43.20709" lon="6.02887">
        <ele>103</ele>
        <time>2024-11-10T14:55:00Z</time>
      </trkpt>
      <trkpt lat="43.20702" lon="6.02884">
        <ele>103</ele>
        <time>2024-11-10T14:55:01Z</time>
      </trkpt>
      <trkpt lat="43.20699" lon="6.02877">
        <ele>102</ele>
        <time>2024-11-10T14:55:03Z</time>
      </trkpt>
      <trkpt lat="43.20697" lon="6.02841">
        <ele>101</ele>
        <time>2024-11-10T14:55:09Z</time>
      </trkpt>
      <trkpt lat="43.20663" lon="6.02845">
        <ele>100</ele>
        <time>2024-11-10T14:55:17Z</time>
      </trkpt>
      <trkpt lat="43.20667" lon="6.02896">
        <ele>103</ele>
        <time>2024-11-10T14:55:26Z</time>
      </trkpt>
      <trkpt lat="43.20663" lon="6.02918">
        <ele>104</ele>
        <time>2024-11-10T14:55:30Z</time>
      </trkpt>
      <trkpt lat="43.20642" lon="6.02917">
        <ele>104</ele>
        <time>2024-11-10T14:55:34Z</time>
      </trkpt>
      <trkpt lat="43.20565" lon="6.02921">
        <ele>105</ele>
        <time>2024-11-10T14:55:52Z</time>
      </trkpt>
      <trkpt lat="43.20548" lon="6.02916">
        <ele>105</ele>
        <time>2024-11-10T14:55:57Z</time>
      </trkpt>
      <trkpt lat="43.20486" lon="6.02884">
        <ele>103</ele>
        <time>2024-11-10T14:56:12Z</time>
      </trkpt>
      <trkpt lat="43.20468" lon="6.02879">
        <ele>102</ele>
        <time>2024-11-10T14:56:16Z</time>
      </trkpt>
      <trkpt lat="43.20433" lon="6.02876">
        <ele>101</ele>
        <time>2024-11-10T14:56:24Z</time>
      </trkpt>
      <trkpt lat="43.20426" lon="6.02828">
        <ele>98</ele>
        <time>2024-11-10T14:56:33Z</time>
      </trkpt>
      <trkpt lat="43.20422" lon="6.02745">
        <ele>95</ele>
        <time>2024-11-10T14:56:47Z</time>
      </trkpt>
      <trkpt lat="43.20419" lon="6.02727">
        <ele>95</ele>
        <time>2024-11-10T14:56:50Z</time>
      </trkpt>
      <trkpt lat="43.20416" lon="6.0271">
        <ele>95</ele>
        <time>2024-11-10T14:56:53Z</time>
      </trkpt>
      <trkpt lat="43.20406" lon="6.02684">
        <ele>95</ele>
        <time>2024-11-10T14:56:58Z</time>
      </trkpt>
      <trkpt lat="43.20403" lon="6.02658">
        <ele>96</ele>
        <time>2024-11-10T14:57:03Z</time>
      </trkpt>
      <trkpt lat="43.20403" lon="6.02648">
        <ele>96</ele>
        <time>2024-11-10T14:57:04Z</time>
      </trkpt>
      <trkpt lat="43.20406" lon="6.02634">
        <ele>96</ele>
        <time>2024-11-10T14:57:07Z</time>
      </trkpt>
      <trkpt lat="43.20425" lon="6.02584">
        <ele>97</ele>
        <time>2024-11-10T14:57:16Z</time>
      </trkpt>
      <trkpt lat="43.20418" lon="6.02581">
        <ele>97</ele>
        <time>2024-11-10T14:57:18Z</time>
      </trkpt>
      <trkpt lat="43.20413" lon="6.02583">
        <ele>97</ele>
        <time>2024-11-10T14:57:19Z</time>
      </trkpt>
      <trkpt lat="43.204" lon="6.02578">
        <ele>97</ele>
        <time>2024-11-10T14:57:22Z</time>
      </trkpt>
      <trkpt lat="43.20324" lon="6.02561">
        <ele>96</ele>
        <time>2024-11-10T14:57:40Z</time>
      </trkpt>
      <trkpt lat="43.20312" lon="6.02554">
        <ele>97</ele>
        <time>2024-11-10T14:57:43Z</time>
      </trkpt>
      <trkpt lat="43.20284" lon="6.02502">
        <ele>100</ele>
        <time>2024-11-10T14:57:54Z</time>
      </trkpt>
      <trkpt lat="43.20271" lon="6.02467">
        <ele>103</ele>
        <time>2024-11-10T14:58:01Z</time>
      </trkpt>
      <trkpt lat="43.20267" lon="6.02464">
        <ele>104</ele>
        <time>2024-11-10T14:58:02Z</time>
      </trkpt>
      <trkpt lat="43.20257" lon="6.02462">
        <ele>105</ele>
        <time>2024-11-10T14:58:05Z</time>
      </trkpt>
      <trkpt lat="43.20252" lon="6.02462">
        <ele>105</ele>
        <time>2024-11-10T14:58:06Z</time>
      </trkpt>
      <trkpt lat="43.20254" lon="6.02416">
        <ele>108</ele>
        <time>2024-11-10T14:58:14Z</time>
      </trkpt>
      <trkpt lat="43.20269" lon="6.02316">
        <ele>115</ele>
        <time>2024-11-10T14:58:31Z</time>
      </trkpt>
      <trkpt lat="43.20268" lon="6.02283">
        <ele>116</ele>
        <time>2024-11-10T14:58:37Z</time>
      </trkpt>
      <trkpt lat="43.20263" lon="6.02204">
        <ele>116</ele>
        <time>2024-11-10T14:58:50Z</time>
      </trkpt>
      <trkpt lat="43.20262" lon="6.02191">
        <ele>116</ele>
        <time>2024-11-10T14:58:52Z</time>
      </trkpt>
      <trkpt lat="43.20257" lon="6.02177">
        <ele>116</ele>
        <time>2024-11-10T14:58:55Z</time>
      </trkpt>
      <trkpt lat="43.2024" lon="6.02154">
        <ele>119</ele>
        <time>2024-11-10T14:59:01Z</time>
      </trkpt>
      <trkpt lat="43.20229" lon="6.02132">
        <ele>121</ele>
        <time>2024-11-10T14:59:05Z</time>
      </trkpt>
      <trkpt lat="43.20221" lon="6.02112">
        <ele>120</ele>
        <time>2024-11-10T14:59:09Z</time>
      </trkpt>
      <trkpt lat="43.20215" lon="6.02088">
        <ele>118</ele>
        <time>2024-11-10T14:59:13Z</time>
      </trkpt>
      <trkpt lat="43.20194" lon="6.02037">
        <ele>115</ele>
        <time>2024-11-10T14:59:23Z</time>
      </trkpt>
      <trkpt lat="43.20191" lon="6.0202">
        <ele>113</ele>
        <time>2024-11-10T14:59:26Z</time>
      </trkpt>
      <trkpt lat="43.20191" lon="6.01984">
        <ele>110</ele>
        <time>2024-11-10T14:59:32Z</time>
      </trkpt>
      <trkpt lat="43.2019" lon="6.01968">
        <ele>110</ele>
        <time>2024-11-10T14:59:35Z</time>
      </trkpt>
      <trkpt lat="43.20186" lon="6.01953">
        <ele>110</ele>
        <time>2024-11-10T14:59:38Z</time>
      </trkpt>
      <trkpt lat="43.20181" lon="6.01947">
        <ele>110</ele>
        <time>2024-11-10T14:59:39Z</time>
      </trkpt>
      <trkpt lat="43.20174" lon="6.01929">
        <ele>110</ele>
        <time>2024-11-10T14:59:43Z</time>
      </trkpt>
      <trkpt lat="43.20155" lon="6.01865">
        <ele>112</ele>
        <time>2024-11-10T14:59:55Z</time>
      </trkpt>
      <trkpt lat="43.20121" lon="6.01791">
        <ele>116</ele>
        <time>2024-11-10T15:00:10Z</time>
      </trkpt>
      <trkpt lat="43.20106" lon="6.01755">
        <ele>114</ele>
        <time>2024-11-10T15:00:17Z</time>
      </trkpt>
      <trkpt lat="43.20095" lon="6.01731">
        <ele>113</ele>
        <time>2024-11-10T15:00:21Z</time>
      </trkpt>
      <trkpt lat="43.20037" lon="6.0164">
        <ele>116</ele>
        <time>2024-11-10T15:00:42Z</time>
      </trkpt>
      <trkpt lat="43.20002" lon="6.01595">
        <ele>115</ele>
        <time>2024-11-10T15:00:53Z</time>
      </trkpt>
      <trkpt lat="43.19995" lon="6.01593">
        <ele>115</ele>
        <time>2024-11-10T15:00:55Z</time>
      </trkpt>
      <trkpt lat="43.19957" lon="6.01605">
        <ele>121</ele>
        <time>2024-11-10T15:01:04Z</time>
      </trkpt>
      <trkpt lat="43.19931" lon="6.01604">
        <ele>124</ele>
        <time>2024-11-10T15:01:10Z</time>
      </trkpt>
      <trkpt lat="43.19912" lon="6.01598">
        <ele>126</ele>
        <time>2024-11-10T15:01:15Z</time>
      </trkpt>
      <trkpt lat="43.1989" lon="6.0158">
        <ele>128</ele>
        <time>2024-11-10T15:01:21Z</time>
      </trkpt>
      <trkpt lat="43.19877" lon="6.01554">
        <ele>128</ele>
        <time>2024-11-10T15:01:26Z</time>
      </trkpt>
      <trkpt lat="43.19858" lon="6.01497">
        <ele>122</ele>
        <time>2024-11-10T15:01:37Z</time>
      </trkpt>
      <trkpt lat="43.19851" lon="6.01481">
        <ele>122</ele>
        <time>2024-11-10T15:01:40Z</time>
      </trkpt>
      <trkpt lat="43.19824" lon="6.01427">
        <ele>119</ele>
        <time>2024-11-10T15:01:51Z</time>
      </trkpt>
      <trkpt lat="43.19802" lon="6.0139">
        <ele>121</ele>
        <time>2024-11-10T15:01:59Z</time>
      </trkpt>
      <trkpt lat="43.19768" lon="6.01344">
        <ele>122</ele>
        <time>2024-11-10T15:02:10Z</time>
      </trkpt>
      <trkpt lat="43.19752" lon="6.01334">
        <ele>120</ele>
        <time>2024-11-10T15:02:14Z</time>
      </trkpt>
      <trkpt lat="43.19713" lon="6.01315">
        <ele>124</ele>
        <time>2024-11-10T15:02:24Z</time>
      </trkpt>
      <trkpt lat="43.19707" lon="6.01308">
        <ele>125</ele>
        <time>2024-11-10T15:02:26Z</time>
      </trkpt>
      <trkpt lat="43.19702" lon="6.013">
        <ele>125</ele>
        <time>2024-11-10T15:02:28Z</time>
      </trkpt>
      <trkpt lat="43.19691" lon="6.01255">
        <ele>129</ele>
        <time>2024-11-10T15:02:36Z</time>
      </trkpt>
      <trkpt lat="43.19683" lon="6.01234">
        <ele>131</ele>
        <time>2024-11-10T15:02:40Z</time>
      </trkpt>
      <trkpt lat="43.1967" lon="6.01223">
        <ele>130</ele>
        <time>2024-11-10T15:02:43Z</time>
      </trkpt>
      <trkpt lat="43.19635" lon="6.01208">
        <ele>132</ele>
        <time>2024-11-10T15:02:52Z</time>
      </trkpt>
      <trkpt lat="43.19627" lon="6.01201">
        <ele>133</ele>
        <time>2024-11-10T15:02:54Z</time>
      </trkpt>
      <trkpt lat="43.19622" lon="6.01191">
        <ele>134</ele>
        <time>2024-11-10T15:02:56Z</time>
      </trkpt>
      <trkpt lat="43.19614" lon="6.01162">
        <ele>135</ele>
        <time>2024-11-10T15:03:01Z</time>
      </trkpt>
      <trkpt lat="43.19605" lon="6.01083">
        <ele>135</ele>
        <time>2024-11-10T15:03:15Z</time>
      </trkpt>
      <trkpt lat="43.19599" lon="6.01047">
        <ele>134</ele>
        <time>2024-11-10T15:03:21Z</time>
      </trkpt>
      <trkpt lat="43.19601" lon="6.01033">
        <ele>134</ele>
        <time>2024-11-10T15:03:24Z</time>
      </trkpt>
      <trkpt lat="43.19609" lon="6.01012">
        <ele>135</ele>
        <time>2024-11-10T15:03:28Z</time>
      </trkpt>
      <trkpt lat="43.19609" lon="6.00997">
        <ele>135</ele>
        <time>2024-11-10T15:03:30Z</time>
      </trkpt>
      <trkpt lat="43.196" lon="6.00951">
        <ele>133</ele>
        <time>2024-11-10T15:03:38Z</time>
      </trkpt>
      <trkpt lat="43.19578" lon="6.00857">
        <ele>134</ele>
        <time>2024-11-10T15:03:55Z</time>
      </trkpt>
      <trkpt lat="43.19577" lon="6.0084">
        <ele>134</ele>
        <time>2024-11-10T15:03:58Z</time>
      </trkpt>
      <trkpt lat="43.19579" lon="6.00822">
        <ele>134</ele>
        <time>2024-11-10T15:04:01Z</time>
      </trkpt>
      <trkpt lat="43.19588" lon="6.0078">
        <ele>133</ele>
        <time>2024-11-10T15:04:09Z</time>
      </trkpt>
      <trkpt lat="43.19595" lon="6.00771">
        <ele>133</ele>
        <time>2024-11-10T15:04:11Z</time>
      </trkpt>
      <trkpt lat="43.19637" lon="6.00745">
        <ele>134</ele>
        <time>2024-11-10T15:04:22Z</time>
      </trkpt>
      <trkpt lat="43.1965" lon="6.00734">
        <ele>134</ele>
        <time>2024-11-10T15:04:25Z</time>
      </trkpt>
      <trkpt lat="43.19655" lon="6.00723">
        <ele>133</ele>
        <time>2024-11-10T15:04:27Z</time>
      </trkpt>
      <trkpt lat="43.19664" lon="6.0068">
        <ele>132</ele>
        <time>2024-11-10T15:04:35Z</time>
      </trkpt>
      <trkpt lat="43.19671" lon="6.0066">
        <ele>133</ele>
        <time>2024-11-10T15:04:39Z</time>
      </trkpt>
      <trkpt lat="43.19679" lon="6.00646">
        <ele>134</ele>
        <time>2024-11-10T15:04:42Z</time>
      </trkpt>
      <trkpt lat="43.19716" lon="6.00603">
        <ele>135</ele>
        <time>2024-11-10T15:04:53Z</time>
      </trkpt>
      <trkpt lat="43.19736" lon="6.00623">
        <ele>136</ele>
        <time>2024-11-10T15:04:59Z</time>
      </trkpt>
      <trkpt lat="43.19742" lon="6.00625">
        <ele>137</ele>
        <time>2024-11-10T15:05:00Z</time>
      </trkpt>
      <trkpt lat="43.19748" lon="6.00621">
        <ele>137</ele>
        <time>2024-11-10T15:05:02Z</time>
      </trkpt>
      <trkpt lat="43.19754" lon="6.00628">
        <ele>138</ele>
        <time>2024-11-10T15:05:04Z</time>
      </trkpt>
      <trkpt lat="43.19777" lon="6.00644">
        <ele>140</ele>
        <time>2024-11-10T15:05:10Z</time>
      </trkpt>
    </trkseg>
  </trk>
</gpx>